Observation data for Menard on 01/21/2019      Previous  Date  Next       Current Mesonet Observations  Soil Data  Daily Summary Page  Observations in Plain Language
KMD1 210600Z 20007KT 07/M01 A3013 RMK A01 T00711010  RH  056%=      5-min Rain = 0
KMD1 210601Z 20007KT 07/M01 A3013 RMK A01 T00711009  RH  057%=      5-min Rain = 0
KMD1 210602Z 20006KT 07/M01 A3013 RMK A01 T00711010  RH  056%=      5-min Rain = 0
KMD1 210603Z 21005KT 07/M01 A3013 RMK A01 T00711010  RH  056%=      5-min Rain = 0
KMD1 210604Z 21007KT 07/M01 A3013 RMK A01 T00721010  RH  056%=      5-min Rain = 0
KMD1 210605Z 21006KT 07/M01 A3013 RMK A01 T00721011  RH  056%=      5-min Rain = 0
KMD1 210606Z 20005KT 07/M01 A3013 RMK A01 T00731010  RH  056%=      5-min Rain = 0
KMD1 210607Z 22005KT 07/M01 A3013 RMK A01 T00731010  RH  056%=      5-min Rain = 0
KMD1 210608Z 21006KT 07/M01 A3013 RMK A01 T00721010  RH  056%=      5-min Rain = 0
KMD1 210609Z 21005KT 07/M01 A3013 RMK A01 T00721011  RH  056%=      5-min Rain = 0
KMD1 210610Z 21005KT 07/M01 A3013 RMK A01 T00721010  RH  056%=      5-min Rain = 0
KMD1 210611Z 20006KT 07/M01 A3013 RMK A01 T00711010  RH  056%=      5-min Rain = 0
KMD1 210612Z 21007KT 07/M01 A3013 RMK A01 T00711011  RH  056%=      5-min Rain = 0
KMD1 210613Z 20006KT 07/M01 A3013 RMK A01 T00711011  RH  056%=      5-min Rain = 0
KMD1 210614Z 21006KT 07/M01 A3013 RMK A01 T00711011  RH  056%=      5-min Rain = 0
KMD1 210615Z 21006KT 07/M01 A3013 RMK A01 T00711011  RH  056%=      5-min Rain = 0
KMD1 210616Z 21005KT 07/M01 A3013 RMK A01 T00701010  RH  057%=      5-min Rain = 0
KMD1 210617Z 21006KT 07/M01 A3012 RMK A01 T00701010  RH  057%=      5-min Rain = 0
KMD1 210618Z 20004KT 07/M01 A3012 RMK A01 T00701011  RH  056%=      5-min Rain = 0
KMD1 210619Z 20005KT 07/M01 A3012 RMK A01 T00701011  RH  056%=      5-min Rain = 0
KMD1 210620Z 21005KT 07/M01 A3012 RMK A01 T00701012  RH  056%=      5-min Rain = 0
KMD1 210621Z 20005KT 07/M01 A3012 RMK A01 T00701011  RH  056%=      5-min Rain = 0
KMD1 210622Z 20007KT 07/M01 A3012 RMK A01 T00701012  RH  056%=      5-min Rain = 0
KMD1 210623Z 20005KT 07/M01 A3012 RMK A01 T00711012  RH  056%=      5-min Rain = 0
KMD1 210624Z 20006KT 07/M01 A3012 RMK A01 T00721011  RH  056%=      5-min Rain = 0
KMD1 210625Z 20006KT 07/M01 A3012 RMK A01 T00711011  RH  056%=      5-min Rain = 0
KMD1 210626Z 19006KT 07/M01 A3012 RMK A01 T00701011  RH  056%=      5-min Rain = 0
KMD1 210627Z 20004KT 07/M01 A3012 RMK A01 T00701011  RH  056%=      5-min Rain = 0
KMD1 210628Z 20006KT 07/M01 A3012 RMK A01 T00691011  RH  057%=      5-min Rain = 0
KMD1 210629Z 20007KT 07/M01 A3012 RMK A01 T00691012  RH  056%=      5-min Rain = 0
KMD1 210630Z 20006KT 07/M01 A3012 RMK A01 T00701012  RH  056%=      5-min Rain = 0
KMD1 210631Z 21007KT 07/M01 A3012 RMK A01 T00701011  RH  056%=      5-min Rain = 0
KMD1 210632Z 21006KT 07/M01 A3012 RMK A01 T00701012  RH  056%=      5-min Rain = 0
KMD1 210633Z 20006KT 07/M01 A3012 RMK A01 T00701012  RH  056%=      5-min Rain = 0
KMD1 210634Z 20006KT 07/M01 A3012 RMK A01 T00701011  RH  056%=      5-min Rain = 0
KMD1 210635Z 20006KT 07/M01 A3012 RMK A01 T00691012  RH  056%=      5-min Rain = 0
KMD1 210636Z 20004KT 07/M01 A3013 RMK A01 T00691011  RH  057%=      5-min Rain = 0
KMD1 210637Z 21005KT 07/M01 A3013 RMK A01 T00681011  RH  057%=      5-min Rain = 0
KMD1 210638Z 21005KT 07/M01 A3013 RMK A01 T00671012  RH  057%=      5-min Rain = 0
KMD1 210639Z 20006KT 07/M01 A3013 RMK A01 T00671012  RH  057%=      5-min Rain = 0
KMD1 210640Z 20006KT 07/M01 A3013 RMK A01 T00681012  RH  057%=      5-min Rain = 0
KMD1 210641Z 20006KT 07/M01 A3012 RMK A01 T00681012  RH  057%=      5-min Rain = 0
KMD1 210642Z 20005KT 07/M01 A3012 RMK A01 T00681012  RH  057%=      5-min Rain = 0
KMD1 210643Z 21004KT 07/M01 A3012 RMK A01 T00681012  RH  057%=      5-min Rain = 0
KMD1 210644Z 19005KT 07/M01 A3012 RMK A01 T00671012  RH  057%=      5-min Rain = 0
KMD1 210645Z 19005KT 07/M01 A3012 RMK A01 T00661012  RH  057%=      5-min Rain = 0
KMD1 210646Z 20006KT 07/M01 A3012 RMK A01 T00661012  RH  057%=      5-min Rain = 0
KMD1 210647Z 20006KT 07/M01 A3012 RMK A01 T00661012  RH  057%=      5-min Rain = 0
KMD1 210648Z 20005KT 07/M01 A3012 RMK A01 T00661012  RH  058%=      5-min Rain = 0
KMD1 210649Z 21004KT 07/M01 A3012 RMK A01 T00661012  RH  058%=      5-min Rain = 0
KMD1 210650Z 21005KT 07/M01 A3012 RMK A01 T00651012  RH  058%=      5-min Rain = 0
KMD1 210651Z 21004KT 07/M01 A3012 RMK A01 T00651012  RH  058%=      5-min Rain = 0
KMD1 210652Z 22004KT 07/M01 A3012 RMK A01 T00651013  RH  057%=      5-min Rain = 0
KMD1 210653Z 20006KT 07/M01 A3012 RMK A01 T00651013  RH  057%=      5-min Rain = 0
KMD1 210654Z 21005KT 07/M01 A3012 RMK A01 T00651013  RH  057%=      5-min Rain = 0
KMD1 210655Z 22003KT 07/M01 A3012 RMK A01 T00651013  RH  057%=      5-min Rain = 0
KMD1 210656Z 22005KT 07/M01 A3012 RMK A01 T00661013  RH  057%=      5-min Rain = 0
KMD1 210657Z 21006KT 07/M01 A3012 RMK A01 T00661013  RH  057%=      5-min Rain = 0
KMD1 210658Z 21005KT 07/M01 A3012 RMK A01 T00661013  RH  057%=      5-min Rain = 0
KMD1 210659Z 22005KT 07/M01 A3012 RMK A01 T00671014  RH  056%=      5-min Rain = 0
KMD1 210700Z 21005KT 07/M01 A3013 RMK A01 T00671014  RH  056%=      5-min Rain = 0
KMD1 210701Z 22005KT 07/M01 A3013 RMK A01 T00671014  RH  056%=      5-min Rain = 0
KMD1 210702Z 21004KT 07/M01 A3013 RMK A01 T00671013  RH  057%=      5-min Rain = 0
KMD1 210703Z 22004KT 07/M01 A3013 RMK A01 T00671013  RH  057%=      5-min Rain = 0
KMD1 210704Z 22005KT 07/M01 A3013 RMK A01 T00671014  RH  056%=      5-min Rain = 0
KMD1 210705Z 22004KT 07/M01 A3013 RMK A01 T00681014  RH  056%=      5-min Rain = 0
KMD1 210706Z 21005KT 07/M01 A3013 RMK A01 T00671013  RH  056%=      5-min Rain = 0
KMD1 210707Z 22005KT 07/M01 A3013 RMK A01 T00661014  RH  057%=      5-min Rain = 0
KMD1 210708Z 21005KT 07/M01 A3013 RMK A01 T00661013  RH  057%=      5-min Rain = 0
KMD1 210709Z 21005KT 07/M01 A3013 RMK A01 T00661013  RH  057%=      5-min Rain = 0
KMD1 210710Z 21005KT 07/M01 A3013 RMK A01 T00661013  RH  057%=      5-min Rain = 0
KMD1 210711Z 21005KT 07/M01 A3013 RMK A01 T00651014  RH  057%=      5-min Rain = 0
KMD1 210712Z 21005KT 07/M02 A3013 RMK A01 T00661015  RH  056%=      5-min Rain = 0
KMD1 210713Z 21005KT 07/M01 A3013 RMK A01 T00661014  RH  056%=      5-min Rain = 0
KMD1 210714Z 21005KT 07/M01 A3013 RMK A01 T00661013  RH  057%=      5-min Rain = 0
KMD1 210715Z 21005KT 07/M01 A3013 RMK A01 T00661014  RH  057%=      5-min Rain = 0
KMD1 210716Z 21006KT 07/M01 A3013 RMK A01 T00661014  RH  057%=      5-min Rain = 0
KMD1 210717Z 21005KT 07/M01 A3013 RMK A01 T00651014  RH  057%=      5-min Rain = 0
KMD1 210718Z 21005KT 06/M01 A3013 RMK A01 T00641014  RH  057%=      5-min Rain = 0
KMD1 210719Z 21004KT 06/M02 A3013 RMK A01 T00641015  RH  057%=      5-min Rain = 0
KMD1 210720Z 20005KT 06/M02 A3013 RMK A01 T00641015  RH  057%=      5-min Rain = 0
KMD1 210721Z 21005KT 06/M02 A3013 RMK A01 T00641015  RH  057%=      5-min Rain = 0
KMD1 210722Z 20004KT 06/M02 A3013 RMK A01 T00641015  RH  057%=      5-min Rain = 0
KMD1 210723Z 21005KT 06/M02 A3013 RMK A01 T00641015  RH  057%=      5-min Rain = 0
KMD1 210724Z 22005KT 06/M02 A3013 RMK A01 T00641016  RH  057%=      5-min Rain = 0
KMD1 210725Z 21005KT 06/M02 A3013 RMK A01 T00641016  RH  057%=      5-min Rain = 0
KMD1 210726Z 22005KT 06/M02 A3013 RMK A01 T00641015  RH  057%=      5-min Rain = 0
KMD1 210727Z 23005KT 06/M02 A3013 RMK A01 T00641016  RH  056%=      5-min Rain = 0
KMD1 210728Z 21005KT 07/M02 A3013 RMK A01 T00661016  RH  056%=      5-min Rain = 0
KMD1 210729Z 22005KT 07/M02 A3013 RMK A01 T00671016  RH  056%=      5-min Rain = 0
KMD1 210730Z 22005KT 07/M02 A3013 RMK A01 T00671016  RH  055%=      5-min Rain = 0
KMD1 210731Z 23004KT 07/M02 A3013 RMK A01 T00671017  RH  055%=      5-min Rain = 0
KMD1 210732Z 22005KT 07/M02 A3013 RMK A01 T00671016  RH  056%=      5-min Rain = 0
KMD1 210733Z 22006KT 07/M02 A3013 RMK A01 T00661016  RH  056%=      5-min Rain = 0
KMD1 210734Z 22005KT 07/M02 A3013 RMK A01 T00651016  RH  056%=      5-min Rain = 0
KMD1 210735Z 23005KT 07/M02 A3013 RMK A01 T00651016  RH  056%=      5-min Rain = 0
KMD1 210736Z 22006KT 07/M02 A3013 RMK A01 T00651016  RH  056%=      5-min Rain = 0
KMD1 210737Z 23004KT 07/M02 A3013 RMK A01 T00661016  RH  056%=      5-min Rain = 0
KMD1 210738Z 22004KT 07/M02 A3013 RMK A01 T00661015  RH  056%=      5-min Rain = 0
KMD1 210739Z 23005KT 07/M02 A3013 RMK A01 T00651015  RH  056%=      5-min Rain = 0
KMD1 210740Z 22004KT 07/M02 A3013 RMK A01 T00651016  RH  056%=      5-min Rain = 0
KMD1 210741Z 23004KT 07/M02 A3013 RMK A01 T00651016  RH  056%=      5-min Rain = 0
KMD1 210742Z 23005KT 07/M02 A3013 RMK A01 T00651016  RH  056%=      5-min Rain = 0
KMD1 210743Z 23004KT 06/M02 A3013 RMK A01 T00641015  RH  057%=      5-min Rain = 0
KMD1 210744Z 22004KT 06/M02 A3013 RMK A01 T00641015  RH  057%=      5-min Rain = 0
KMD1 210745Z 22005KT 06/M02 A3013 RMK A01 T00631016  RH  057%=      5-min Rain = 0
KMD1 210746Z 22005KT 06/M02 A3013 RMK A01 T00621016  RH  057%=      5-min Rain = 0
KMD1 210747Z 22005KT 06/M02 A3013 RMK A01 T00621016  RH  058%=      5-min Rain = 0
KMD1 210748Z 23004KT 06/M02 A3013 RMK A01 T00611016  RH  058%=      5-min Rain = 0
KMD1 210749Z 22005KT 06/M02 A3013 RMK A01 T00611016  RH  058%=      5-min Rain = 0
KMD1 210750Z 23005KT 06/M02 A3013 RMK A01 T00611015  RH  058%=      5-min Rain = 0
KMD1 210751Z 22004KT 06/M02 A3013 RMK A01 T00601015  RH  058%=      5-min Rain = 0
KMD1 210752Z 22004KT 06/M02 A3013 RMK A01 T00601015  RH  058%=      5-min Rain = 0
KMD1 210753Z 22004KT 06/M02 A3013 RMK A01 T00611016  RH  058%=      5-min Rain = 0
KMD1 210754Z 22004KT 06/M02 A3013 RMK A01 T00611016  RH  058%=      5-min Rain = 0
KMD1 210755Z 22004KT 06/M02 A3013 RMK A01 T00611015  RH  058%=      5-min Rain = 0
KMD1 210756Z 21004KT 06/M02 A3013 RMK A01 T00591016  RH  059%=      5-min Rain = 0
KMD1 210757Z 22005KT 06/M02 A3013 RMK A01 T00591016  RH  059%=      5-min Rain = 0
KMD1 210758Z 22005KT 06/M02 A3013 RMK A01 T00581016  RH  059%=      5-min Rain = 0
KMD1 210759Z 21004KT 06/M02 A3013 RMK A01 T00591016  RH  059%=      5-min Rain = 0
KMD1 210800Z 20005KT 06/M02 A3013 RMK A01 T00581016  RH  059%=      5-min Rain = 0
KMD1 210801Z 21005KT 06/M02 A3013 RMK A01 T00581016  RH  059%=      5-min Rain = 0
KMD1 210802Z 21004KT 06/M02 A3013 RMK A01 T00581017  RH  059%=      5-min Rain = 0
KMD1 210803Z 21004KT 06/M02 A3013 RMK A01 T00581017  RH  059%=      5-min Rain = 0
KMD1 210804Z 21003KT 06/M02 A3013 RMK A01 T00571017  RH  059%=      5-min Rain = 0
KMD1 210805Z 20005KT 06/M02 A3013 RMK A01 T00581017  RH  059%=      5-min Rain = 0
KMD1 210806Z 21005KT 06/M02 A3013 RMK A01 T00581017  RH  059%=      5-min Rain = 0
KMD1 210807Z 21004KT 06/M02 A3013 RMK A01 T00581017  RH  059%=      5-min Rain = 0
KMD1 210808Z 21003KT 06/M02 A3012 RMK A01 T00581017  RH  059%=      5-min Rain = 0
KMD1 210809Z 21004KT 06/M02 A3012 RMK A01 T00581017  RH  059%=      5-min Rain = 0
KMD1 210810Z 20005KT 06/M02 A3012 RMK A01 T00581017  RH  059%=      5-min Rain = 0
KMD1 210811Z 20004KT 06/M02 A3012 RMK A01 T00571018  RH  059%=      5-min Rain = 0
KMD1 210812Z 20004KT 06/M02 A3012 RMK A01 T00571018  RH  058%=      5-min Rain = 0
KMD1 210813Z 21003KT 06/M02 A3012 RMK A01 T00571018  RH  058%=      5-min Rain = 0
KMD1 210814Z 20004KT 06/M02 A3012 RMK A01 T00581018  RH  058%=      5-min Rain = 0
KMD1 210815Z 21004KT 06/M02 A3012 RMK A01 T00581018  RH  058%=      5-min Rain = 0
KMD1 210816Z 20004KT 06/M02 A3012 RMK A01 T00581018  RH  058%=      5-min Rain = 0
KMD1 210817Z 20005KT 06/M02 A3012 RMK A01 T00581018  RH  058%=      5-min Rain = 0
KMD1 210818Z 20003KT 06/M02 A3012 RMK A01 T00581018  RH  058%=      5-min Rain = 0
KMD1 210819Z 21003KT 06/M02 A3012 RMK A01 T00581018  RH  058%=      5-min Rain = 0
KMD1 210820Z 21003KT 06/M02 A3012 RMK A01 T00571018  RH  059%=      5-min Rain = 0
KMD1 210821Z 21003KT 06/M02 A3012 RMK A01 T00571018  RH  058%=      5-min Rain = 0
KMD1 210822Z 22003KT 06/M02 A3012 RMK A01 T00571018  RH  058%=      5-min Rain = 0
KMD1 210823Z 21003KT 06/M02 A3012 RMK A01 T00581019  RH  058%=      5-min Rain = 0
KMD1 210824Z 21003KT 06/M02 A3012 RMK A01 T00581019  RH  058%=      5-min Rain = 0
KMD1 210825Z 21003KT 06/M02 A3012 RMK A01 T00581019  RH  058%=      5-min Rain = 0
KMD1 210826Z 21004KT 06/M02 A3012 RMK A01 T00581019  RH  058%=      5-min Rain = 0
KMD1 210827Z 21003KT 06/M02 A3012 RMK A01 T00581019  RH  058%=      5-min Rain = 0
KMD1 210828Z 22003KT 06/M02 A3012 RMK A01 T00591019  RH  057%=      5-min Rain = 0
KMD1 210829Z 22003KT 06/M02 A3012 RMK A01 T00601019  RH  057%=      5-min Rain = 0
KMD1 210830Z 22003KT 06/M02 A3012 RMK A01 T00611019  RH  056%=      5-min Rain = 0
KMD1 210831Z 23002KT 06/M02 A3012 RMK A01 T00611019  RH  056%=      5-min Rain = 0
KMD1 210832Z 22002KT 06/M02 A3012 RMK A01 T00611019  RH  056%=      5-min Rain = 0
KMD1 210833Z 23003KT 06/M02 A3012 RMK A01 T00601019  RH  057%=      5-min Rain = 0
KMD1 210834Z 21003KT 06/M02 A3012 RMK A01 T00591019  RH  057%=      5-min Rain = 0
KMD1 210835Z 18003KT 06/M02 A3012 RMK A01 T00591019  RH  057%=      5-min Rain = 0
KMD1 210836Z 20002KT 06/M02 A3012 RMK A01 T00581019  RH  057%=      5-min Rain = 0
KMD1 210837Z 20003KT 06/M02 A3012 RMK A01 T00581019  RH  057%=      5-min Rain = 0
KMD1 210838Z 20002KT 06/M02 A3012 RMK A01 T00591020  RH  057%=      5-min Rain = 0
KMD1 210839Z 20002KT 06/M02 A3012 RMK A01 T00591020  RH  057%=      5-min Rain = 0
KMD1 210840Z 20002KT 06/M02 A3012 RMK A01 T00591019  RH  057%=      5-min Rain = 0
KMD1 210841Z 20003KT 06/M02 A3012 RMK A01 T00591019  RH  057%=      5-min Rain = 0
KMD1 210842Z 17003KT 06/M02 A3011 RMK A01 T00591019  RH  057%=      5-min Rain = 0
KMD1 210843Z 19003KT 06/M02 A3011 RMK A01 T00581020  RH  057%=      5-min Rain = 0
KMD1 210844Z 19002KT 06/M02 A3011 RMK A01 T00581020  RH  058%=      5-min Rain = 0
KMD1 210845Z 19003KT 06/M02 A3011 RMK A01 T00561020  RH  058%=      5-min Rain = 0
KMD1 210846Z 18002KT 06/M02 A3011 RMK A01 T00561020  RH  058%=      5-min Rain = 0
KMD1 210847Z 20003KT 06/M02 A3011 RMK A01 T00561020  RH  058%=      5-min Rain = 0
KMD1 210848Z 19004KT 06/M02 A3011 RMK A01 T00551020  RH  058%=      5-min Rain = 0
KMD1 210849Z 19003KT 06/M02 A3011 RMK A01 T00561021  RH  058%=      5-min Rain = 0
KMD1 210850Z 19003KT 06/M02 A3011 RMK A01 T00571021  RH  057%=      5-min Rain = 0
KMD1 210851Z 18003KT 06/M02 A3011 RMK A01 T00571021  RH  057%=      5-min Rain = 0
KMD1 210852Z 18002KT 06/M02 A3011 RMK A01 T00571021  RH  057%=      5-min Rain = 0
KMD1 210853Z 19003KT 06/M02 A3011 RMK A01 T00561021  RH  058%=      5-min Rain = 0
KMD1 210854Z 19002KT 06/M02 A3011 RMK A01 T00551021  RH  058%=      5-min Rain = 0
KMD1 210855Z 20002KT 06/M02 A3011 RMK A01 T00551020  RH  058%=      5-min Rain = 0
KMD1 210856Z 21002KT 05/M02 A3011 RMK A01 T00541020  RH  059%=      5-min Rain = 0
KMD1 210857Z 19002KT 05/M02 A3011 RMK A01 T00541020  RH  059%=      5-min Rain = 0
KMD1 210858Z 19002KT 05/M02 A3011 RMK A01 T00541020  RH  059%=      5-min Rain = 0
KMD1 210859Z 20002KT 05/M02 A3011 RMK A01 T00531020  RH  059%=      5-min Rain = 0
KMD1 210900Z 19003KT 05/M02 A3011 RMK A01 T00531021  RH  059%=      5-min Rain = 0
KMD1 210901Z 19003KT 05/M02 A3011 RMK A01 T00541021  RH  059%=      5-min Rain = 0
KMD1 210902Z 20003KT 06/M02 A3011 RMK A01 T00551021  RH  058%=      5-min Rain = 0
KMD1 210903Z 20003KT 05/M02 A3011 RMK A01 T00541020  RH  059%=      5-min Rain = 0
KMD1 210904Z 21004KT 05/M02 A3011 RMK A01 T00541020  RH  059%=      5-min Rain = 0
KMD1 210905Z 20003KT 06/M02 A3011 RMK A01 T00551020  RH  058%=      5-min Rain = 0
KMD1 210906Z 20003KT 06/M02 A3011 RMK A01 T00551021  RH  058%=      5-min Rain = 0
KMD1 210907Z 20003KT 06/M02 A3011 RMK A01 T00561020  RH  058%=      5-min Rain = 0
KMD1 210908Z 19004KT 06/M02 A3011 RMK A01 T00571021  RH  057%=      5-min Rain = 0
KMD1 210909Z 19004KT 06/M02 A3011 RMK A01 T00581021  RH  057%=      5-min Rain = 0
KMD1 210910Z 20003KT 06/M02 A3011 RMK A01 T00581020  RH  057%=      5-min Rain = 0
KMD1 210911Z 19004KT 06/M02 A301 RMK A01 T00571020  RH  058%=      5-min Rain = 0
KMD1 210912Z 19004KT 06/M02 A301 RMK A01 T00561021  RH  058%=      5-min Rain = 0
KMD1 210913Z 19005KT 06/M02 A301 RMK A01 T00561021  RH  058%=      5-min Rain = 0
KMD1 210914Z 18004KT 06/M02 A301 RMK A01 T00551021  RH  058%=      5-min Rain = 0
KMD1 210915Z 18004KT 06/M02 A301 RMK A01 T00551021  RH  058%=      5-min Rain = 0
KMD1 210916Z 18004KT 05/M02 A301 RMK A01 T00531021  RH  059%=      5-min Rain = 0
KMD1 210917Z 18004KT 05/M02 A301 RMK A01 T00531020  RH  059%=      5-min Rain = 0
KMD1 210918Z 18005KT 05/M02 A301 RMK A01 T00521020  RH  059%=      5-min Rain = 0
KMD1 210919Z 18005KT 05/M02 A301 RMK A01 T00511021  RH  060%=      5-min Rain = 0
KMD1 210920Z 19004KT 05/M02 A301 RMK A01 T00501021  RH  060%=      5-min Rain = 0
KMD1 210921Z 18004KT 05/M02 A301 RMK A01 T00501021  RH  060%=      5-min Rain = 0
KMD1 210922Z 18004KT 05/M02 A301 RMK A01 T00501020  RH  060%=      5-min Rain = 0
KMD1 210923Z 18004KT 05/M02 A301 RMK A01 T00501020  RH  060%=      5-min Rain = 0
KMD1 210924Z 18004KT 05/M02 A301 RMK A01 T00501020  RH  060%=      5-min Rain = 0
KMD1 210925Z 19004KT 05/M02 A301 RMK A01 T00501020  RH  061%=      5-min Rain = 0
KMD1 210926Z 18005KT 05/M02 A3009 RMK A01 T00491020  RH  061%=      5-min Rain = 0
KMD1 210927Z 18005KT 05/M02 A3009 RMK A01 T00501020  RH  060%=      5-min Rain = 0
KMD1 210928Z 18007KT 05/M02 A3009 RMK A01 T00511020  RH  060%=      5-min Rain = 0
KMD1 210929Z 18004KT 05/M02 A3009 RMK A01 T00531020  RH  059%=      5-min Rain = 0
KMD1 210930Z 18004KT 05/M02 A3009 RMK A01 T00531019  RH  060%=      5-min Rain = 0
KMD1 210931Z 19006KT 05/M02 A3009 RMK A01 T00521019  RH  060%=      5-min Rain = 0
KMD1 210932Z 17005KT 05/M02 A3009 RMK A01 T00531020  RH  060%=      5-min Rain = 0
KMD1 210933Z 19005KT 05/M02 A3009 RMK A01 T00521020  RH  060%=      5-min Rain = 0
KMD1 210934Z 19005KT 05/M02 A3009 RMK A01 T00511020  RH  060%=      5-min Rain = 0
KMD1 210935Z 18005KT 05/M02 A3009 RMK A01 T00521020  RH  060%=      5-min Rain = 0
KMD1 210936Z 18006KT 05/M02 A3009 RMK A01 T00531019  RH  060%=      5-min Rain = 0
KMD1 210937Z 18005KT 05/M02 A3009 RMK A01 T00531020  RH  059%=      5-min Rain = 0
KMD1 210938Z 18005KT 05/M02 A3009 RMK A01 T00541020  RH  059%=      5-min Rain = 0
KMD1 210939Z 19005KT 06/M02 A3008 RMK A01 T00551019  RH  059%=      5-min Rain = 0
KMD1 210940Z 18005KT 06/M02 A3008 RMK A01 T00551019  RH  059%=      5-min Rain = 0
KMD1 210941Z 19004KT 05/M02 A3008 RMK A01 T00541020  RH  059%=      5-min Rain = 0
KMD1 210942Z 18004KT 05/M02 A3008 RMK A01 T00541020  RH  059%=      5-min Rain = 0
KMD1 210943Z 17004KT 05/M02 A3008 RMK A01 T00541020  RH  059%=      5-min Rain = 0
KMD1 210944Z 18004KT 05/M02 A3008 RMK A01 T00541020  RH  059%=      5-min Rain = 0
KMD1 210945Z 18003KT 05/M02 A3008 RMK A01 T00531020  RH  059%=      5-min Rain = 0
KMD1 210946Z 18004KT 05/M02 A3008 RMK A01 T00511020  RH  060%=      5-min Rain = 0
KMD1 210947Z 19003KT 05/M02 A3008 RMK A01 T00511020  RH  060%=      5-min Rain = 0
KMD1 210948Z 18003KT 05/M02 A3008 RMK A01 T00511020  RH  060%=      5-min Rain = 0
KMD1 210949Z 19002KT 05/M02 A3008 RMK A01 T00511020  RH  060%=      5-min Rain = 0
KMD1 210950Z 19002KT 05/M02 A3008 RMK A01 T00521021  RH  060%=      5-min Rain = 0
KMD1 210951Z 21002KT 05/M02 A3008 RMK A01 T00521020  RH  060%=      5-min Rain = 0
KMD1 210952Z 21001KT 05/M02 A3008 RMK A01 T00521020  RH  060%=      5-min Rain = 0
KMD1 210953Z 20002KT 05/M02 A3008 RMK A01 T00511020  RH  060%=      5-min Rain = 0
KMD1 210954Z 21002KT 05/M02 A3008 RMK A01 T00511020  RH  060%=      5-min Rain = 0
KMD1 210955Z 20002KT 05/M02 A3008 RMK A01 T00511021  RH  060%=      5-min Rain = 0
KMD1 210956Z 20002KT 05/M02 A3008 RMK A01 T00511021  RH  060%=      5-min Rain = 0
KMD1 210957Z 20002KT 05/M02 A3008 RMK A01 T00511021  RH  060%=      5-min Rain = 0
KMD1 210958Z 22003KT 05/M02 A3008 RMK A01 T00511021  RH  060%=      5-min Rain = 0
KMD1 210959Z 20004KT 05/M02 A3008 RMK A01 T00511021  RH  060%=      5-min Rain = 0
KMD1 211000Z 20004KT 05/M02 A3008 RMK A01 T00511021  RH  059%=      5-min Rain = 0
KMD1 211001Z 20004KT 05/M02 A3008 RMK A01 T00521021  RH  060%=      5-min Rain = 0
KMD1 211002Z 19004KT 05/M02 A3008 RMK A01 T00511020  RH  060%=      5-min Rain = 0
KMD1 211003Z 19002KT 05/M02 A3008 RMK A01 T00521021  RH  059%=      5-min Rain = 0
KMD1 211004Z 20003KT 05/M02 A3008 RMK A01 T00521021  RH  059%=      5-min Rain = 0
KMD1 211005Z 21004KT 05/M02 A3008 RMK A01 T00521021  RH  059%=      5-min Rain = 0
KMD1 211006Z 20005KT 05/M02 A3008 RMK A01 T00521021  RH  060%=      5-min Rain = 0
KMD1 211007Z 20005KT 05/M02 A3008 RMK A01 T00511021  RH  060%=      5-min Rain = 0
KMD1 211008Z 21004KT 05/M02 A3008 RMK A01 T00521021  RH  059%=      5-min Rain = 0
KMD1 211009Z 20008KT 05/M02 A3008 RMK A01 T00531021  RH  059%=      5-min Rain = 0
KMD1 211010Z 20005KT 06/M02 A3008 RMK A01 T00551021  RH  058%=      5-min Rain = 0
KMD1 211011Z 21004KT 06/M02 A3008 RMK A01 T00561020  RH  058%=      5-min Rain = 0
KMD1 211012Z 21005KT 06/M02 A3008 RMK A01 T00551020  RH  058%=      5-min Rain = 0
KMD1 211013Z 20003KT 06/M02 A3008 RMK A01 T00551020  RH  059%=      5-min Rain = 0
KMD1 211014Z 21007KT 05/M02 A3008 RMK A01 T00541020  RH  059%=      5-min Rain = 0
KMD1 211015Z 22006KT 05/M02 A3008 RMK A01 T00541019  RH  059%=      5-min Rain = 0
KMD1 211016Z 22004KT 06/M02 A3008 RMK A01 T00551020  RH  059%=      5-min Rain = 0
KMD1 211017Z 22006KT 05/M02 A3008 RMK A01 T00541020  RH  059%=      5-min Rain = 0
KMD1 211018Z 21006KT 05/M02 A3008 RMK A01 T00541020  RH  059%=      5-min Rain = 0
KMD1 211019Z 21006KT 05/M02 A3008 RMK A01 T00531019  RH  059%=      5-min Rain = 0
KMD1 211020Z 20006KT 05/M02 A3008 RMK A01 T00541018  RH  060%=      5-min Rain = 0
KMD1 211021Z 21007KT 05/M02 A3008 RMK A01 T00531019  RH  060%=      5-min Rain = 0
KMD1 211022Z 21006KT 05/M02 A3008 RMK A01 T00531019  RH  060%=      5-min Rain = 0
KMD1 211023Z 21006KT 06/M02 A3008 RMK A01 T00551019  RH  059%=      5-min Rain = 0
KMD1 211024Z 20007KT 06/M02 A3008 RMK A01 T00571020  RH  058%=      5-min Rain = 0
KMD1 211025Z 21006KT 06/M02 A3008 RMK A01 T00581020  RH  057%=      5-min Rain = 0
KMD1 211026Z 20007KT 06/M02 A3008 RMK A01 T00581019  RH  058%=      5-min Rain = 0
KMD1 211027Z 21005KT 06/M02 A3008 RMK A01 T00581019  RH  058%=      5-min Rain = 0
KMD1 211028Z 20005KT 06/M02 A3008 RMK A01 T00561019  RH  059%=      5-min Rain = 0
KMD1 211029Z 21004KT 06/M02 A3008 RMK A01 T00551019  RH  059%=      5-min Rain = 0
KMD1 211030Z 22004KT 05/M02 A3008 RMK A01 T00541019  RH  059%=      5-min Rain = 0
KMD1 211031Z 21004KT 05/M02 A3008 RMK A01 T00541020  RH  059%=      5-min Rain = 0
KMD1 211032Z 22004KT 05/M02 A3008 RMK A01 T00541021  RH  059%=      5-min Rain = 0
KMD1 211033Z 20006KT 06/M02 A3008 RMK A01 T00551021  RH  058%=      5-min Rain = 0
KMD1 211034Z 20004KT 06/M02 A3008 RMK A01 T00551021  RH  058%=      5-min Rain = 0
KMD1 211035Z 21004KT 05/M02 A3008 RMK A01 T00541020  RH  059%=      5-min Rain = 0
KMD1 211036Z 21003KT 05/M02 A3008 RMK A01 T00541020  RH  059%=      5-min Rain = 0
KMD1 211037Z 22003KT 05/M02 A3008 RMK A01 T00541020  RH  059%=      5-min Rain = 0
KMD1 211038Z 22003KT 05/M02 A3008 RMK A01 T00531021  RH  059%=      5-min Rain = 0
KMD1 211039Z 22003KT 05/M02 A3008 RMK A01 T00541021  RH  059%=      5-min Rain = 0
KMD1 211040Z 22003KT 05/M02 A3008 RMK A01 T00541021  RH  059%=      5-min Rain = 0
KMD1 211041Z 22003KT 05/M02 A3008 RMK A01 T00531021  RH  059%=      5-min Rain = 0
KMD1 211042Z 23003KT 05/M02 A3008 RMK A01 T00531021  RH  059%=      5-min Rain = 0
KMD1 211043Z 23002KT 05/M02 A3008 RMK A01 T00541021  RH  059%=      5-min Rain = 0
KMD1 211044Z 23002KT 05/M02 A3008 RMK A01 T00531021  RH  059%=      5-min Rain = 0
KMD1 211045Z 23004KT 05/M02 A3008 RMK A01 T00521021  RH  059%=      5-min Rain = 0
KMD1 211046Z 22004KT 05/M02 A3008 RMK A01 T00511021  RH  059%=      5-min Rain = 0
KMD1 211047Z 23004KT 05/M02 A3008 RMK A01 T00521021  RH  059%=      5-min Rain = 0
KMD1 211048Z 23004KT 05/M02 A3008 RMK A01 T00521021  RH  059%=      5-min Rain = 0
KMD1 211049Z 22005KT 05/M02 A3008 RMK A01 T00521021  RH  060%=      5-min Rain = 0
KMD1 211050Z 23004KT 05/M02 A3008 RMK A01 T00521020  RH  060%=      5-min Rain = 0
KMD1 211051Z 22006KT 05/M02 A3008 RMK A01 T00521020  RH  059%=      5-min Rain = 0
KMD1 211052Z 21004KT 05/M02 A3008 RMK A01 T00541021  RH  059%=      5-min Rain = 0
KMD1 211053Z 21005KT 05/M02 A3008 RMK A01 T00541020  RH  059%=      5-min Rain = 0
KMD1 211054Z 22004KT 05/M02 A3008 RMK A01 T00541020  RH  059%=      5-min Rain = 0
KMD1 211055Z 21004KT 05/M02 A3008 RMK A01 T00531021  RH  059%=      5-min Rain = 0
KMD1 211056Z 22004KT 05/M02 A3008 RMK A01 T00521020  RH  060%=      5-min Rain = 0
KMD1 211057Z 22004KT 05/M02 A3008 RMK A01 T00511020  RH  060%=      5-min Rain = 0
KMD1 211058Z 21005KT 05/M02 A3008 RMK A01 T00501021  RH  060%=      5-min Rain = 0
KMD1 211059Z 21005KT 05/M02 A3009 RMK A01 T00511021  RH  060%=      5-min Rain = 0
KMD1 211100Z 21005KT 05/M02 A3008 RMK A01 T00511021  RH  060%=      5-min Rain = 0
KMD1 211101Z 23003KT 05/M02 A3009 RMK A01 T00521021  RH  060%=      5-min Rain = 0
KMD1 211102Z 22004KT 05/M02 A3009 RMK A01 T00521020  RH  060%=      5-min Rain = 0
KMD1 211103Z 21004KT 05/M02 A3008 RMK A01 T00511020  RH  060%=      5-min Rain = 0
KMD1 211104Z 21005KT 05/M02 A3008 RMK A01 T00511020  RH  060%=      5-min Rain = 0
KMD1 211105Z 20005KT 05/M02 A3008 RMK A01 T00511020  RH  060%=      5-min Rain = 0
KMD1 211106Z 19005KT 05/M02 A3008 RMK A01 T00511020  RH  060%=      5-min Rain = 0
KMD1 211107Z 20006KT 05/M02 A3008 RMK A01 T00511021  RH  060%=      5-min Rain = 0
KMD1 211108Z 20006KT 05/M02 A3008 RMK A01 T00521020  RH  060%=      5-min Rain = 0
KMD1 211109Z 20005KT 05/M02 A3008 RMK A01 T00521020  RH  060%=      5-min Rain = 0
KMD1 211110Z 19005KT 05/M02 A3008 RMK A01 T00521019  RH  060%=      5-min Rain = 0
KMD1 211111Z 20005KT 05/M02 A3008 RMK A01 T00511020  RH  060%=      5-min Rain = 0
KMD1 211112Z 20006KT 05/M02 A3008 RMK A01 T00511020  RH  060%=      5-min Rain = 0
KMD1 211113Z 20005KT 05/M02 A3008 RMK A01 T00511020  RH  060%=      5-min Rain = 0
KMD1 211114Z 19005KT 05/M02 A3008 RMK A01 T00511020  RH  060%=      5-min Rain = 0
KMD1 211115Z 19004KT 05/M02 A3008 RMK A01 T00521020  RH  060%=      5-min Rain = 0
KMD1 211116Z 19004KT 05/M02 A3008 RMK A01 T00521020  RH  060%=      5-min Rain = 0
KMD1 211117Z 18004KT 05/M02 A3008 RMK A01 T00521021  RH  060%=      5-min Rain = 0
KMD1 211118Z 20005KT 05/M02 A3008 RMK A01 T00511020  RH  060%=      5-min Rain = 0
KMD1 211119Z 20004KT 05/M02 A3008 RMK A01 T00501020  RH  061%=      5-min Rain = 0
KMD1 211120Z 20006KT 05/M02 A3007 RMK A01 T00501020  RH  061%=      5-min Rain = 0
KMD1 211121Z 20005KT 05/M02 A3007 RMK A01 T00501020  RH  060%=      5-min Rain = 0
KMD1 211122Z 20005KT 05/M02 A3007 RMK A01 T00511020  RH  060%=      5-min Rain = 0
KMD1 211123Z 21006KT 05/M02 A3007 RMK A01 T00511020  RH  060%=      5-min Rain = 0
KMD1 211124Z 20004KT 05/M02 A3007 RMK A01 T00511020  RH  060%=      5-min Rain = 0
KMD1 211125Z 19004KT 05/M02 A3007 RMK A01 T00511020  RH  060%=      5-min Rain = 0
KMD1 211126Z 19004KT 05/M02 A3007 RMK A01 T00511020  RH  060%=      5-min Rain = 0
KMD1 211127Z 20004KT 05/M02 A3007 RMK A01 T00501020  RH  060%=      5-min Rain = 0
KMD1 211128Z 21003KT 05/M02 A3007 RMK A01 T00501020  RH  060%=      5-min Rain = 0
KMD1 211129Z 20005KT 05/M02 A3007 RMK A01 T00491020  RH  061%=      5-min Rain = 0
KMD1 211130Z 20005KT 05/M02 A3007 RMK A01 T00491021  RH  060%=      5-min Rain = 0
KMD1 211131Z 20004KT 05/M02 A3007 RMK A01 T00501020  RH  060%=      5-min Rain = 0
KMD1 211132Z 20004KT 05/M02 A3007 RMK A01 T00491020  RH  061%=      5-min Rain = 0
KMD1 211133Z 19005KT 05/M02 A3007 RMK A01 T00491020  RH  061%=      5-min Rain = 0
KMD1 211134Z 19004KT 05/M02 A3006 RMK A01 T00491020  RH  061%=      5-min Rain = 0
KMD1 211135Z 19004KT 05/M02 A3006 RMK A01 T00501020  RH  060%=      5-min Rain = 0
KMD1 211136Z 20003KT 05/M02 A3007 RMK A01 T00491020  RH  061%=      5-min Rain = 0
KMD1 211137Z 19003KT 05/M02 A3007 RMK A01 T00481020  RH  061%=      5-min Rain = 0
KMD1 211138Z 19005KT 05/M02 A3007 RMK A01 T00481020  RH  061%=      5-min Rain = 0
KMD1 211139Z 21004KT 05/M02 A3007 RMK A01 T00481021  RH  061%=      5-min Rain = 0
KMD1 211140Z 20003KT 05/M02 A3007 RMK A01 T00501020  RH  060%=      5-min Rain = 0
KMD1 211141Z 19003KT 05/M02 A3007 RMK A01 T00501021  RH  060%=      5-min Rain = 0
KMD1 211142Z 18005KT 05/M02 A3007 RMK A01 T00491021  RH  061%=      5-min Rain = 0
KMD1 211143Z 19004KT 05/M02 A3007 RMK A01 T00491021  RH  060%=      5-min Rain = 0
KMD1 211144Z 19004KT 05/M02 A3007 RMK A01 T00501021  RH  060%=      5-min Rain = 0
KMD1 211145Z 17005KT 05/M02 A3007 RMK A01 T00511021  RH  060%=      5-min Rain = 0
KMD1 211146Z 18005KT 05/M02 A3007 RMK A01 T00511021  RH  060%=      5-min Rain = 0
KMD1 211147Z 18003KT 05/M02 A3007 RMK A01 T00501021  RH  060%=      5-min Rain = 0
KMD1 211148Z 20003KT 05/M02 A3007 RMK A01 T00491020  RH  061%=      5-min Rain = 0
KMD1 211149Z 19005KT 05/M02 A3007 RMK A01 T00481021  RH  061%=      5-min Rain = 0
KMD1 211150Z 19004KT 05/M02 A3007 RMK A01 T00481022  RH  061%=      5-min Rain = 0
KMD1 211151Z 21004KT 05/M02 A3007 RMK A01 T00481021  RH  061%=      5-min Rain = 0
KMD1 211152Z 19003KT 05/M02 A3007 RMK A01 T00481021  RH  061%=      5-min Rain = 0
KMD1 211153Z 20005KT 05/M02 A3007 RMK A01 T00481021  RH  061%=      5-min Rain = 0
KMD1 211154Z 21005KT 05/M02 A3007 RMK A01 T00481021  RH  061%=      5-min Rain = 0
KMD1 211155Z 21004KT 05/M02 A3007 RMK A01 T00481021  RH  061%=      5-min Rain = 0
KMD1 211156Z 21005KT 05/M02 A3007 RMK A01 T00491021  RH  061%=      5-min Rain = 0
KMD1 211157Z 22004KT 05/M02 A3007 RMK A01 T00491021  RH  060%=      5-min Rain = 0
KMD1 211158Z 21003KT 05/M02 A3007 RMK A01 T00491021  RH  061%=      5-min Rain = 0
KMD1 211159Z 22003KT 05/M02 A3007 RMK A01 T00481020  RH  061%=      5-min Rain = 0
KMD1 211200Z 22004KT 05/M02 A3007 RMK A01 T00471020  RH  062%=      5-min Rain = 0
KMD1 211201Z 21004KT 05/M02 A3007 RMK A01 T00451020  RH  062%=      5-min Rain = 0
KMD1 211202Z 22003KT 05/M02 A3007 RMK A01 T00451020  RH  062%=      5-min Rain = 0
KMD1 211203Z 21003KT 05/M02 A3007 RMK A01 T00451021  RH  062%=      5-min Rain = 0
KMD1 211204Z 22004KT 05/M02 A3007 RMK A01 T00451021  RH  062%=      5-min Rain = 0
KMD1 211205Z 22004KT 05/M02 A3008 RMK A01 T00461021  RH  062%=      5-min Rain = 0
KMD1 211206Z 22004KT 05/M02 A3008 RMK A01 T00451021  RH  062%=      5-min Rain = 0
KMD1 211207Z 22004KT 05/M02 A3008 RMK A01 T00451021  RH  062%=      5-min Rain = 0
KMD1 211208Z 22004KT 04/M02 A3008 RMK A01 T00441021  RH  063%=      5-min Rain = 0
KMD1 211209Z 22004KT 04/M02 A3008 RMK A01 T00441021  RH  063%=      5-min Rain = 0
KMD1 211210Z 22004KT 04/M02 A3008 RMK A01 T00441021  RH  063%=      5-min Rain = 0
KMD1 211211Z 22005KT 04/M02 A3008 RMK A01 T00441021  RH  063%=      5-min Rain = 0
KMD1 211212Z 22005KT 04/M02 A3008 RMK A01 T00441021  RH  062%=      5-min Rain = 0
KMD1 211213Z 22004KT 04/M02 A3008 RMK A01 T00441021  RH  062%=      5-min Rain = 0
KMD1 211214Z 21004KT 04/M02 A3008 RMK A01 T00441021  RH  063%=      5-min Rain = 0
KMD1 211215Z 21005KT 04/M02 A3008 RMK A01 T00441021  RH  063%=      5-min Rain = 0
KMD1 211216Z 21004KT 04/M02 A3008 RMK A01 T00431021  RH  063%=      5-min Rain = 0
KMD1 211217Z 21005KT 04/M02 A3008 RMK A01 T00431021  RH  063%=      5-min Rain = 0
KMD1 211218Z 21005KT 04/M02 A3008 RMK A01 T00431021  RH  063%=      5-min Rain = 0
KMD1 211219Z 21005KT 04/M02 A3008 RMK A01 T00421021  RH  063%=      5-min Rain = 0
KMD1 211220Z 21004KT 04/M02 A3008 RMK A01 T00431021  RH  063%=      5-min Rain = 0
KMD1 211221Z 22005KT 04/M02 A3008 RMK A01 T00421022  RH  063%=      5-min Rain = 0
KMD1 211222Z 21004KT 04/M02 A3008 RMK A01 T00421021  RH  063%=      5-min Rain = 0
KMD1 211223Z 22004KT 04/M02 A3009 RMK A01 T00421021  RH  064%=      5-min Rain = 0
KMD1 211224Z 22005KT 04/M02 A3009 RMK A01 T00421021  RH  063%=      5-min Rain = 0
KMD1 211225Z 21005KT 04/M02 A3009 RMK A01 T00431021  RH  063%=      5-min Rain = 0
KMD1 211226Z 21003KT 04/M02 A3009 RMK A01 T00431021  RH  063%=      5-min Rain = 0
KMD1 211227Z 21003KT 04/M02 A3008 RMK A01 T00431021  RH  063%=      5-min Rain = 0
KMD1 211228Z 20003KT 04/M02 A3008 RMK A01 T00441021  RH  063%=      5-min Rain = 0
KMD1 211229Z 20004KT 04/M02 A3008 RMK A01 T00431022  RH  063%=      5-min Rain = 0
KMD1 211230Z 21005KT 04/M02 A3008 RMK A01 T00421022  RH  063%=      5-min Rain = 0
KMD1 211231Z 20006KT 04/M02 A3008 RMK A01 T00421022  RH  063%=      5-min Rain = 0
KMD1 211232Z 20006KT 04/M02 A3008 RMK A01 T00421022  RH  063%=      5-min Rain = 0
KMD1 211233Z 20006KT 04/M02 A3008 RMK A01 T00441022  RH  063%=      5-min Rain = 0
KMD1 211234Z 20006KT 04/M02 A3008 RMK A01 T00441022  RH  062%=      5-min Rain = 0
KMD1 211235Z 20006KT 04/M02 A3008 RMK A01 T00441021  RH  062%=      5-min Rain = 0
KMD1 211236Z 19004KT 04/M02 A3008 RMK A01 T00441021  RH  062%=      5-min Rain = 0
KMD1 211237Z 19005KT 04/M02 A3008 RMK A01 T00441021  RH  063%=      5-min Rain = 0
KMD1 211238Z 19005KT 04/M02 A3008 RMK A01 T00421022  RH  063%=      5-min Rain = 0
KMD1 211239Z 19004KT 04/M02 A3008 RMK A01 T00421022  RH  064%=      5-min Rain = 0
KMD1 211240Z 19004KT 04/M02 A3008 RMK A01 T00421021  RH  064%=      5-min Rain = 0
KMD1 211241Z 19004KT 04/M02 A3008 RMK A01 T00411022  RH  063%=      5-min Rain = 0
KMD1 211242Z 19004KT 04/M02 A3008 RMK A01 T00401022  RH  064%=      5-min Rain = 0
KMD1 211243Z 20004KT 04/M02 A3008 RMK A01 T00401022  RH  064%=      5-min Rain = 0
KMD1 211244Z 20004KT 04/M02 A3008 RMK A01 T00401022  RH  064%=      5-min Rain = 0
KMD1 211245Z 19004KT 04/M02 A3008 RMK A01 T00401022  RH  064%=      5-min Rain = 0
KMD1 211246Z 21003KT 04/M02 A3008 RMK A01 T00401022  RH  064%=      5-min Rain = 0
KMD1 211247Z 21003KT 04/M02 A3008 RMK A01 T00411021  RH  064%=      5-min Rain = 0
KMD1 211248Z 21003KT 04/M02 A3008 RMK A01 T00411022  RH  064%=      5-min Rain = 0
KMD1 211249Z 21002KT 04/M02 A3008 RMK A01 T00401022  RH  064%=      5-min Rain = 0
KMD1 211250Z 22002KT 04/M02 A3008 RMK A01 T00381022  RH  065%=      5-min Rain = 0
KMD1 211251Z 21002KT 04/M02 A3008 RMK A01 T00381022  RH  065%=      5-min Rain = 0
KMD1 211252Z 22003KT 04/M02 A3008 RMK A01 T00381022  RH  065%=      5-min Rain = 0
KMD1 211253Z 21003KT 04/M02 A3008 RMK A01 T00391022  RH  064%=      5-min Rain = 0
KMD1 211254Z 21003KT 04/M02 A3008 RMK A01 T00401022  RH  064%=      5-min Rain = 0
KMD1 211255Z 22002KT 04/M02 A3008 RMK A01 T00401022  RH  064%=      5-min Rain = 0
KMD1 211256Z 22001KT 04/M02 A3008 RMK A01 T00411022  RH  064%=      5-min Rain = 0
KMD1 211257Z 22002KT 04/M02 A3008 RMK A01 T00411022  RH  064%=      5-min Rain = 0
KMD1 211258Z 22002KT 04/M02 A3008 RMK A01 T00411022  RH  063%=      5-min Rain = 0
KMD1 211259Z 21002KT 04/M02 A3008 RMK A01 T00411022  RH  063%=      5-min Rain = 0
KMD1 211300Z 21004KT 04/M02 A3008 RMK A01 T00411022  RH  064%=      5-min Rain = 0
KMD1 211301Z 22001KT 04/M02 A3008 RMK A01 T00411022  RH  063%=      5-min Rain = 0
KMD1 211302Z 22002KT 04/M02 A3008 RMK A01 T00411022  RH  063%=      5-min Rain = 0
KMD1 211303Z 22004KT 04/M02 A3009 RMK A01 T00401022  RH  064%=      5-min Rain = 0
KMD1 211304Z 22003KT 04/M02 A3009 RMK A01 T00411022  RH  064%=      5-min Rain = 0
KMD1 211305Z 21003KT 04/M02 A3009 RMK A01 T00421022  RH  063%=      5-min Rain = 0
KMD1 211306Z 22002KT 04/M02 A3009 RMK A01 T00421022  RH  063%=      5-min Rain = 0
KMD1 211307Z 22002KT 04/M02 A3009 RMK A01 T00411022  RH  063%=      5-min Rain = 0
KMD1 211308Z 21004KT 04/M02 A3009 RMK A01 T00411022  RH  063%=      5-min Rain = 0
KMD1 211309Z 22002KT 04/M02 A3009 RMK A01 T00421022  RH  063%=      5-min Rain = 0
KMD1 211310Z 22002KT 04/M02 A3009 RMK A01 T00421022  RH  063%=      5-min Rain = 0
KMD1 211311Z 24002KT 04/M02 A3009 RMK A01 T00421022  RH  063%=      5-min Rain = 0
KMD1 211312Z 23003KT 04/M02 A3009 RMK A01 T00421022  RH  063%=      5-min Rain = 0
KMD1 211313Z 23001KT 04/M02 A3009 RMK A01 T00421022  RH  063%=      5-min Rain = 0
KMD1 211314Z 24002KT 04/M02 A3009 RMK A01 T00421023  RH  063%=      5-min Rain = 0
KMD1 211315Z 22001KT 04/M02 A3009 RMK A01 T00421023  RH  063%=      5-min Rain = 0
KMD1 211316Z 24002KT 04/M02 A3009 RMK A01 T00411023  RH  063%=      5-min Rain = 0
KMD1 211317Z 23002KT 04/M02 A3009 RMK A01 T00401022  RH  064%=      5-min Rain = 0
KMD1 211318Z 23002KT 04/M02 A3009 RMK A01 T00401023  RH  064%=      5-min Rain = 0
KMD1 211319Z 23002KT 04/M02 A3009 RMK A01 T00391022  RH  064%=      5-min Rain = 0
KMD1 211320Z 23003KT 04/M02 A3009 RMK A01 T00391023  RH  064%=      5-min Rain = 0
KMD1 211321Z 23003KT 04/M02 A301 RMK A01 T00391023  RH  064%=      5-min Rain = 0
KMD1 211322Z 23002KT 04/M02 A301 RMK A01 T00391023  RH  064%=      5-min Rain = 0
KMD1 211323Z 22003KT 04/M02 A301 RMK A01 T00391022  RH  064%=      5-min Rain = 0
KMD1 211324Z 23002KT 04/M02 A301 RMK A01 T00391022  RH  064%=      5-min Rain = 0
KMD1 211325Z 22002KT 04/M02 A301 RMK A01 T00391022  RH  064%=      5-min Rain = 0
KMD1 211326Z 23001KT 04/M02 A301 RMK A01 T00391023  RH  064%=      5-min Rain = 0
KMD1 211327Z 23002KT 04/M02 A301 RMK A01 T00381022  RH  064%=      5-min Rain = 0
KMD1 211328Z 22004KT 04/M02 A301 RMK A01 T00391022  RH  065%=      5-min Rain = 0
KMD1 211329Z 24002KT 04/M02 A301 RMK A01 T00401022  RH  064%=      5-min Rain = 0
KMD1 211330Z 25002KT 04/M02 A301 RMK A01 T00401023  RH  064%=      5-min Rain = 0
KMD1 211331Z 23001KT 04/M02 A301 RMK A01 T00391023  RH  064%=      5-min Rain = 0
KMD1 211332Z 22002KT 04/M02 A301 RMK A01 T00381023  RH  064%=      5-min Rain = 0
KMD1 211333Z 23002KT 04/M02 A301 RMK A01 T00371024  RH  064%=      5-min Rain = 0
KMD1 211334Z 23002KT 04/M02 A301 RMK A01 T00361023  RH  065%=      5-min Rain = 0
KMD1 211335Z 23003KT 04/M02 A301 RMK A01 T00351022  RH  066%=      5-min Rain = 0
KMD1 211336Z 23002KT 04/M02 A301 RMK A01 T00361022  RH  066%=      5-min Rain = 0
KMD1 211337Z 23002KT 04/M02 A301 RMK A01 T00361022  RH  066%=      5-min Rain = 0
KMD1 211338Z 23003KT 04/M02 A301 RMK A01 T00361023  RH  066%=      5-min Rain = 0
KMD1 211339Z 23002KT 04/M02 A301 RMK A01 T00371022  RH  065%=      5-min Rain = 0
KMD1 211340Z 22003KT 04/M02 A301 RMK A01 T00371023  RH  065%=      5-min Rain = 0
KMD1 211341Z 22003KT 04/M02 A301 RMK A01 T00371022  RH  065%=      5-min Rain = 0
KMD1 211342Z 22003KT 04/M02 A301 RMK A01 T00371023  RH  065%=      5-min Rain = 0
KMD1 211343Z 22003KT 04/M02 A301 RMK A01 T00371023  RH  065%=      5-min Rain = 0
KMD1 211344Z 22004KT 04/M02 A301 RMK A01 T00371023  RH  065%=      5-min Rain = 0
KMD1 211345Z 21004KT 04/M02 A301 RMK A01 T00371023  RH  065%=      5-min Rain = 0
KMD1 211346Z 21003KT 04/M02 A301 RMK A01 T00371023  RH  065%=      5-min Rain = 0
KMD1 211347Z 22003KT 04/M02 A301 RMK A01 T00361023  RH  065%=      5-min Rain = 0
KMD1 211348Z 22003KT 04/M02 A301 RMK A01 T00361023  RH  066%=      5-min Rain = 0
KMD1 211349Z 21003KT 04/M02 A301 RMK A01 T00351023  RH  066%=      5-min Rain = 0
KMD1 211350Z 21003KT 04/M02 A301 RMK A01 T00351023  RH  066%=      5-min Rain = 0
KMD1 211351Z 21003KT 04/M02 A301 RMK A01 T00351022  RH  066%=      5-min Rain = 0
KMD1 211352Z 21004KT 04/M02 A301 RMK A01 T00351022  RH  066%=      5-min Rain = 0
KMD1 211353Z 21004KT 03/M02 A301 RMK A01 T00341022  RH  066%=      5-min Rain = 0
KMD1 211354Z 20003KT 03/M02 A301 RMK A01 T00341022  RH  066%=      5-min Rain = 0
KMD1 211355Z 21003KT 03/M02 A301 RMK A01 T00341022  RH  067%=      5-min Rain = 0
KMD1 211356Z 21003KT 03/M02 A301 RMK A01 T00331022  RH  067%=      5-min Rain = 0
KMD1 211357Z 20003KT 03/M02 A301 RMK A01 T00331022  RH  067%=      5-min Rain = 0
KMD1 211358Z 20003KT 03/M02 A301 RMK A01 T00331022  RH  067%=      5-min Rain = 0
KMD1 211359Z 20003KT 03/M02 A301 RMK A01 T00331022  RH  067%=      5-min Rain = 0
KMD1 211400Z 20002KT 03/M02 A3009 RMK A01 T00331022  RH  067%=      5-min Rain = 0
KMD1 211401Z 20003KT 03/M02 A3009 RMK A01 T00331022  RH  067%=      5-min Rain = 0
KMD1 211402Z 20003KT 03/M02 A3009 RMK A01 T00341021  RH  067%=      5-min Rain = 0
KMD1 211403Z 19002KT 03/M02 A3009 RMK A01 T00341021  RH  067%=      5-min Rain = 0
KMD1 211404Z 19002KT 03/M02 A3009 RMK A01 T00341021  RH  067%=      5-min Rain = 0
KMD1 211405Z 18002KT 03/M02 A3009 RMK A01 T00341022  RH  067%=      5-min Rain = 0
KMD1 211406Z 19002KT 03/M02 A3009 RMK A01 T00341022  RH  067%=      5-min Rain = 0
KMD1 211407Z 19001KT 04/M02 A3009 RMK A01 T00351022  RH  066%=      5-min Rain = 0
KMD1 211408Z 18001KT 04/M02 A3009 RMK A01 T00361021  RH  066%=      5-min Rain = 0
KMD1 211409Z 16002KT 04/M02 A3009 RMK A01 T00361022  RH  066%=      5-min Rain = 0
KMD1 211410Z 14002KT 04/M02 A3009 RMK A01 T00371021  RH  066%=      5-min Rain = 0
KMD1 211411Z 15003KT 04/M02 A3009 RMK A01 T00371021  RH  066%=      5-min Rain = 0
KMD1 211412Z 15003KT 04/M02 A3008 RMK A01 T00361020  RH  067%=      5-min Rain = 0
KMD1 211413Z 15003KT 04/M02 A3008 RMK A01 T00361019  RH  067%=      5-min Rain = 0
KMD1 211414Z 15003KT 04/M02 A3008 RMK A01 T00361019  RH  067%=      5-min Rain = 0
KMD1 211415Z 14004KT 04/M02 A3008 RMK A01 T00361019  RH  067%=      5-min Rain = 0
KMD1 211416Z 15004KT 04/M02 A3008 RMK A01 T00361018  RH  068%=      5-min Rain = 0
KMD1 211417Z 15006KT 04/M02 A3008 RMK A01 T00371018  RH  068%=      5-min Rain = 0
KMD1 211418Z 15006KT 04/M02 A3008 RMK A01 T00381018  RH  067%=      5-min Rain = 0
KMD1 211419Z 15007KT 04/M02 A3008 RMK A01 T00401019  RH  066%=      5-min Rain = 0
KMD1 211420Z 15006KT 04/M02 A3008 RMK A01 T00421019  RH  064%=      5-min Rain = 0
KMD1 211421Z 16004KT 04/M02 A3008 RMK A01 T00441018  RH  064%=      5-min Rain = 0
KMD1 211422Z 16005KT 04/M02 A3008 RMK A01 T00441017  RH  065%=      5-min Rain = 0
KMD1 211423Z 17006KT 05/M02 A3008 RMK A01 T00451018  RH  064%=      5-min Rain = 0
KMD1 211424Z 17006KT 05/M02 A3008 RMK A01 T00471018  RH  063%=      5-min Rain = 0
KMD1 211425Z 18005KT 05/M02 A3008 RMK A01 T00491016  RH  063%=      5-min Rain = 0
KMD1 211426Z 17008KT 05/M02 A3008 RMK A01 T00511017  RH  061%=      5-min Rain = 0
KMD1 211427Z 18007KT 05/M02 A3008 RMK A01 T00531017  RH  061%=      5-min Rain = 0
KMD1 211428Z 19005KT 05/M02 A3008 RMK A01 T00531016  RH  061%=      5-min Rain = 0
KMD1 211429Z 19008KT 05/M02 A3008 RMK A01 T00541015  RH  061%=      5-min Rain = 0
KMD1 211430Z 20006KT 06/M02 A3008 RMK A01 T00561016  RH  060%=      5-min Rain = 0
KMD1 211431Z 19007KT 06/M01 A3008 RMK A01 T00561014  RH  060%=      5-min Rain = 0
KMD1 211432Z 19007KT 06/M02 A3008 RMK A01 T00581015  RH  060%=      5-min Rain = 0
KMD1 211433Z 19009KT 06/M01 A3008 RMK A01 T00591013  RH  060%=      5-min Rain = 0
KMD1 211434Z 19009KT 06/M01 A3008 RMK A01 T00591014  RH  059%=      5-min Rain = 0
KMD1 211435Z 20009KT 06/M02 A3008 RMK A01 T00601015  RH  059%=      5-min Rain = 0
KMD1 211436Z 19009KT 06/M01 A3008 RMK A01 T00611013  RH  059%=      5-min Rain = 0
KMD1 211437Z 20008KT 06/M01 A3008 RMK A01 T00611013  RH  059%=      5-min Rain = 0
KMD1 211438Z 20008KT 06/M01 A3008 RMK A01 T00621012  RH  059%=      5-min Rain = 0
KMD1 211439Z 20009KT 06/M01 A3008 RMK A01 T00621010  RH  060%=      5-min Rain = 0
KMD1 211440Z 20008KT 06/M01 A3008 RMK A01 T00631011  RH  059%=      5-min Rain = 0
KMD1 211441Z 19010KT 06/M01 A3008 RMK A01 T00631012  RH  058%=      5-min Rain = 0
KMD1 211442Z 19009KT 06/M01 A3008 RMK A01 T00641013  RH  058%=      5-min Rain = 0
KMD1 211443Z 19010KT 07/M01 A3008 RMK A01 T00651013  RH  058%=      5-min Rain = 0
KMD1 211444Z 21009KT 07/M01 A3008 RMK A01 T00651013  RH  057%=      5-min Rain = 0
KMD1 211445Z 21009KT 07/M01 A3008 RMK A01 T00661011  RH  058%=      5-min Rain = 0
KMD1 211446Z 20009KT 07/M01 A3008 RMK A01 T00671012  RH  057%=      5-min Rain = 0
KMD1 211447Z 19009KT 07/M01 A3009 RMK A01 T00671010  RH  058%=      5-min Rain = 0
KMD1 211448Z 20009KT 07/M01 A3008 RMK A01 T00681009  RH  058%=      5-min Rain = 0
KMD1 211449Z 21013G19KT 07/M01 A3008 RMK A01 T00691009  RH  057%=      5-min Rain = 0
KMD1 211450Z 21011G16KT 07/M01 A3008 RMK A01 T00701012  RH  056%=      5-min Rain = 0
KMD1 211451Z 21012KT 07/M01 A3008 RMK A01 T00701011  RH  056%=      5-min Rain = 0
KMD1 211452Z 21013KT 07/M01 A3008 RMK A01 T00711012  RH  056%=      5-min Rain = 0
KMD1 211453Z 20012KT 07/M01 A3008 RMK A01 T00711012  RH  055%=      5-min Rain = 0
KMD1 211454Z 20011G16KT 07/M01 A3008 RMK A01 T00721011  RH  055%=      5-min Rain = 0
KMD1 211455Z 20011G16KT 07/M01 A3008 RMK A01 T00731011  RH  055%=      5-min Rain = 0
KMD1 211456Z 20009KT 07/M01 A3008 RMK A01 T00741009  RH  056%=      5-min Rain = 0
KMD1 211457Z 19009KT 08/M01 A3008 RMK A01 T00751009  RH  055%=      5-min Rain = 0
KMD1 211458Z 21010KT 08/M01 A3009 RMK A01 T00751009  RH  055%=      5-min Rain = 0
KMD1 211459Z 21011KT 08/M01 A3009 RMK A01 T00751011  RH  054%=      5-min Rain = 0
KMD1 211500Z 22010KT 08/M01 A3009 RMK A01 T00761014  RH  053%=      5-min Rain = 0
KMD1 211501Z 21009G14KT 08/M01 A3009 RMK A01 T00761010  RH  054%=      5-min Rain = 0
KMD1 211502Z 20012KT 08/M01 A3009 RMK A01 T00761010  RH  054%=      5-min Rain = 0
KMD1 211503Z 20009KT 08/M01 A3009 RMK A01 T00771009  RH  055%=      5-min Rain = 0
KMD1 211504Z 20009KT 08/M01 A3008 RMK A01 T00771009  RH  054%=      5-min Rain = 0
KMD1 211505Z 20011KT 08/M01 A3008 RMK A01 T00781010  RH  054%=      5-min Rain = 0
KMD1 211506Z 21011G16KT 08/M01 A3008 RMK A01 T00791011  RH  053%=      5-min Rain = 0
KMD1 211507Z 21011KT 08/M01 A3008 RMK A01 T00791010  RH  053%=      5-min Rain = 0
KMD1 211508Z 19011KT 08/M01 A3008 RMK A01 T00801009  RH  053%=      5-min Rain = 0
KMD1 211509Z 21010KT 08/M01 A3008 RMK A01 T00811006  RH  054%=      5-min Rain = 0
KMD1 211510Z 20012KT 08/M01 A3008 RMK A01 T00831007  RH  053%=      5-min Rain = 0
KMD1 211511Z 19013KT 08/M01 A3008 RMK A01 T00831007  RH  053%=      5-min Rain = 0
KMD1 211512Z 19011KT 08/M01 A3008 RMK A01 T00841008  RH  052%=      5-min Rain = 0
KMD1 211513Z 20011KT 08/M01 A3008 RMK A01 T00841006  RH  053%=      5-min Rain = 0
KMD1 211514Z 20010KT 08/M01 A3008 RMK A01 T00841007  RH  053%=      5-min Rain = 0
KMD1 211515Z 20012KT 09/M01 A3008 RMK A01 T00851006  RH  053%=      5-min Rain = 0
KMD1 211516Z 20010KT 09/M01 A3008 RMK A01 T00851006  RH  052%=      5-min Rain = 0
KMD1 211517Z 19009KT 09/M00 A3008 RMK A01 T00861004  RH  053%=      5-min Rain = 0
KMD1 211518Z 20010KT 09/M01 A3008 RMK A01 T00861007  RH  052%=      5-min Rain = 0
KMD1 211519Z 20008KT 09/M01 A3008 RMK A01 T00861008  RH  051%=      5-min Rain = 0
KMD1 211520Z 20011KT 09/M01 A3008 RMK A01 T00861006  RH  052%=      5-min Rain = 0
KMD1 211521Z 19011KT 09/M01 A3008 RMK A01 T00861007  RH  052%=      5-min Rain = 0
KMD1 211522Z 20012KT 09/M01 A3008 RMK A01 T00861008  RH  052%=      5-min Rain = 0
KMD1 211523Z 21012KT 09/M01 A3008 RMK A01 T00861009  RH  051%=      5-min Rain = 0
KMD1 211524Z 19013KT 09/M01 A3008 RMK A01 T00861010  RH  051%=      5-min Rain = 0
KMD1 211525Z 19010KT 09/M01 A3008 RMK A01 T00851010  RH  051%=      5-min Rain = 0
KMD1 211526Z 19013KT 09/M01 A3008 RMK A01 T00861007  RH  052%=      5-min Rain = 0
KMD1 211527Z 19011KT 09/M01 A3008 RMK A01 T00871011  RH  050%=      5-min Rain = 0
KMD1 211528Z 19013KT 09/M01 A3008 RMK A01 T00881010  RH  050%=      5-min Rain = 0
KMD1 211529Z 19010KT 09/M01 A3008 RMK A01 T00881011  RH  050%=      5-min Rain = 0
KMD1 211530Z 19008KT 09/M01 A3008 RMK A01 T00891008  RH  050%=      5-min Rain = 0
KMD1 211531Z 19009KT 09/M01 A3008 RMK A01 T00901010  RH  050%=      5-min Rain = 0
KMD1 211532Z 19011KT 09/M01 A3008 RMK A01 T00901010  RH  050%=      5-min Rain = 0
KMD1 211533Z 20011KT 09/M01 A3008 RMK A01 T00901009  RH  050%=      5-min Rain = 0
KMD1 211534Z 20012KT 09/M01 A3008 RMK A01 T00901009  RH  050%=      5-min Rain = 0
KMD1 211535Z 20012KT 09/M01 A3008 RMK A01 T00901011  RH  049%=      5-min Rain = 0
KMD1 211536Z 21013KT 09/M01 A3008 RMK A01 T00901011  RH  049%=      5-min Rain = 0
KMD1 211537Z 20010KT 09/M01 A3008 RMK A01 T00901011  RH  049%=      5-min Rain = 0
KMD1 211538Z 20010G16KT 09/M01 A3008 RMK A01 T00901009  RH  050%=      5-min Rain = 0
KMD1 211539Z 20012KT 09/M01 A3008 RMK A01 T00901010  RH  049%=      5-min Rain = 0
KMD1 211540Z 20015KT 09/M01 A3008 RMK A01 T00901010  RH  050%=      5-min Rain = 0
KMD1 211541Z 20011KT 09/M01 A3008 RMK A01 T00911008  RH  050%=      5-min Rain = 0
KMD1 211542Z 20011KT 09/M01 A3008 RMK A01 T00921007  RH  050%=      5-min Rain = 0
KMD1 211543Z 20013KT 09/M01 A3008 RMK A01 T00931008  RH  049%=      5-min Rain = 0
KMD1 211544Z 20011KT 09/M01 A3007 RMK A01 T00941007  RH  049%=      5-min Rain = 0
KMD1 211545Z 19015KT 10/M01 A3007 RMK A01 T00951006  RH  049%=      5-min Rain = 0
KMD1 211546Z 20011KT 10/M01 A3007 RMK A01 T00951009  RH  048%=      5-min Rain = 0
KMD1 211547Z 20012G18KT 10/M01 A3007 RMK A01 T00961008  RH  048%=      5-min Rain = 0
KMD1 211548Z 20016KT 10/M01 A3007 RMK A01 T00961009  RH  048%=      5-min Rain = 0
KMD1 211549Z 19011G17KT 10/M01 A3007 RMK A01 T00961008  RH  048%=      5-min Rain = 0
KMD1 211550Z 19009KT 10/M00 A3007 RMK A01 T00981004  RH  049%=      5-min Rain = 0
KMD1 211551Z 19010KT 10/M00 A3008 RMK A01 T01011003  RH  049%=      5-min Rain = 0
KMD1 211552Z 18011G16KT 10/M01 A3007 RMK A01 T01021006  RH  047%=      5-min Rain = 0
KMD1 211553Z 20009G15KT 10/M00 A3008 RMK A01 T01021004  RH  048%=      5-min Rain = 0
KMD1 211554Z 19014G20KT 10/M01 A3008 RMK A01 T01021005  RH  047%=      5-min Rain = 0
KMD1 211555Z 20017G22KT 10/M01 A3007 RMK A01 T01021010  RH  046%=      5-min Rain = 0
KMD1 211556Z 20016KT 10/M01 A3008 RMK A01 T01011010  RH  046%=      5-min Rain = 0
KMD1 211557Z 20014KT 10/M01 A3008 RMK A01 T01001010  RH  046%=      5-min Rain = 0
KMD1 211558Z 19013KT 10/M01 A3008 RMK A01 T01001011  RH  046%=      5-min Rain = 0
KMD1 211559Z 19012KT 10/M01 A3008 RMK A01 T01001009  RH  047%=      5-min Rain = 0
KMD1 211600Z 21014G20KT 10/M01 A3008 RMK A01 T01011009  RH  046%=      5-min Rain = 0
KMD1 211601Z 20017G22KT 10/M01 A3007 RMK A01 T01021011  RH  045%=      5-min Rain = 0
KMD1 211602Z 19014KT 10/M01 A3007 RMK A01 T01021012  RH  045%=      5-min Rain = 0
KMD1 211603Z 19012KT 10/M01 A3008 RMK A01 T01031009  RH  046%=      5-min Rain = 0
KMD1 211604Z 19012KT 10/M01 A3008 RMK A01 T01041008  RH  046%=      5-min Rain = 0
KMD1 211605Z 19013KT 11/M01 A3008 RMK A01 T01051009  RH  045%=      5-min Rain = 0
KMD1 211606Z 19012KT 11/M01 A3008 RMK A01 T01061009  RH  045%=      5-min Rain = 0
KMD1 211607Z 20011G17KT 11/M01 A3008 RMK A01 T01071006  RH  045%=      5-min Rain = 0
KMD1 211608Z 20015KT 11/M01 A3008 RMK A01 T01081009  RH  044%=      5-min Rain = 0
KMD1 211609Z 19012KT 11/M01 A3008 RMK A01 T01091008  RH  044%=      5-min Rain = 0
KMD1 211610Z 20015G21KT 11/M01 A3008 RMK A01 T01101006  RH  045%=      5-min Rain = 0
KMD1 211611Z 20017KT 11/M01 A3008 RMK A01 T01111009  RH  043%=      5-min Rain = 0
KMD1 211612Z 20014KT 11/M01 A3008 RMK A01 T01101009  RH  043%=      5-min Rain = 0
KMD1 211613Z 21016KT 11/M01 A3007 RMK A01 T01101010  RH  043%=      5-min Rain = 0
KMD1 211614Z 20016KT 11/M01 A3007 RMK A01 T01101009  RH  043%=      5-min Rain = 0
KMD1 211615Z 20015G21KT 11/M01 A3008 RMK A01 T01101008  RH  044%=      5-min Rain = 0
KMD1 211616Z 20017KT 11/M01 A3007 RMK A01 T01101010  RH  043%=      5-min Rain = 0
KMD1 211617Z 21016KT 11/M01 A3007 RMK A01 T01101011  RH  043%=      5-min Rain = 0
KMD1 211618Z 19018KT 11/M01 A3007 RMK A01 T01101011  RH  043%=      5-min Rain = 0
KMD1 211619Z 18016G21KT 11/M01 A3007 RMK A01 T01101011  RH  043%=      5-min Rain = 0
KMD1 211620Z 20013KT 11/M01 A3007 RMK A01 T01101011  RH  043%=      5-min Rain = 0
KMD1 211621Z 21015KT 11/M01 A3007 RMK A01 T01121009  RH  043%=      5-min Rain = 0
KMD1 211622Z 20012G17KT 11/M01 A3007 RMK A01 T01131007  RH  043%=      5-min Rain = 0
KMD1 211623Z 20015KT 12/M01 A3007 RMK A01 T01151007  RH  043%=      5-min Rain = 0
KMD1 211624Z 19012KT 12/M01 A3007 RMK A01 T01151008  RH  043%=      5-min Rain = 0
KMD1 211625Z 20013KT 12/M01 A3007 RMK A01 T01151009  RH  042%=      5-min Rain = 0
KMD1 211626Z 20013KT 12/M01 A3007 RMK A01 T01151008  RH  042%=      5-min Rain = 0
KMD1 211627Z 19015G22KT 12/M01 A3007 RMK A01 T01151011  RH  042%=      5-min Rain = 0
KMD1 211628Z 19016KT 12/M01 A3007 RMK A01 T01151011  RH  042%=      5-min Rain = 0
KMD1 211629Z 19013KT 12/M01 A3007 RMK A01 T01151011  RH  042%=      5-min Rain = 0
KMD1 211630Z 21013G18KT 12/M01 A3007 RMK A01 T01161006  RH  043%=      5-min Rain = 0
KMD1 211631Z 21018G24KT 12/M01 A3007 RMK A01 T01181011  RH  041%=      5-min Rain = 0
KMD1 211632Z 20017G24KT 12/M01 A3007 RMK A01 T01171013  RH  040%=      5-min Rain = 0
KMD1 211633Z 19014G20KT 12/M01 A3007 RMK A01 T01171012  RH  041%=      5-min Rain = 0
KMD1 211634Z 21016KT 12/M01 A3007 RMK A01 T01181010  RH  041%=      5-min Rain = 0
KMD1 211635Z 20014KT 12/M01 A3007 RMK A01 T01191010  RH  041%=      5-min Rain = 0
KMD1 211636Z 20015KT 12/M01 A3007 RMK A01 T01191011  RH  040%=      5-min Rain = 0
KMD1 211637Z 20014KT 12/M01 A3007 RMK A01 T01191011  RH  040%=      5-min Rain = 0
KMD1 211638Z 19013KT 12/M01 A3007 RMK A01 T01191012  RH  040%=      5-min Rain = 0
KMD1 211639Z 19013G18KT 12/M01 A3007 RMK A01 T01181011  RH  041%=      5-min Rain = 0
KMD1 211640Z 20011KT 12/M01 A3007 RMK A01 T01171012  RH  041%=      5-min Rain = 0
KMD1 211641Z 20009KT 12/M01 A3007 RMK A01 T01181008  RH  042%=      5-min Rain = 0
KMD1 211642Z 18011KT 12/M01 A3007 RMK A01 T01211007  RH  041%=      5-min Rain = 0
KMD1 211643Z 19012G17KT 12/M01 A3007 RMK A01 T01211007  RH  041%=      5-min Rain = 0
KMD1 211644Z 19013KT 12/M01 A3007 RMK A01 T01211011  RH  040%=      5-min Rain = 0
KMD1 211645Z 20010G15KT 12/M01 A3007 RMK A01 T01211009  RH  040%=      5-min Rain = 0
KMD1 211646Z 20013KT 12/M01 A3007 RMK A01 T01221010  RH  040%=      5-min Rain = 0
KMD1 211647Z 19012G17KT 12/M01 A3007 RMK A01 T01221011  RH  040%=      5-min Rain = 0
KMD1 211648Z 19012G17KT 12/M01 A3007 RMK A01 T01231009  RH  040%=      5-min Rain = 0
KMD1 211649Z 19009KT 12/M01 A3007 RMK A01 T01241008  RH  040%=      5-min Rain = 0
KMD1 211650Z 19014KT 13/M01 A3007 RMK A01 T01251009  RH  039%=      5-min Rain = 0
KMD1 211651Z 19011KT 13/M01 A3007 RMK A01 T01251012  RH  039%=      5-min Rain = 0
KMD1 211652Z 20016KT 13/M01 A3007 RMK A01 T01251013  RH  039%=      5-min Rain = 0
KMD1 211653Z 19018KT 12/M02 A3006 RMK A01 T01241016  RH  038%=      5-min Rain = 0
KMD1 211654Z 20019KT 12/M02 A3006 RMK A01 T01231016  RH  038%=      5-min Rain = 0
KMD1 211655Z 20019KT 12/M02 A3006 RMK A01 T01231017  RH  038%=      5-min Rain = 0
KMD1 211656Z 19014KT 12/M02 A3006 RMK A01 T01231017  RH  038%=      5-min Rain = 0
KMD1 211657Z 19012G18KT 12/M01 A3006 RMK A01 T01241013  RH  039%=      5-min Rain = 0
KMD1 211658Z 18014KT 13/M01 A3006 RMK A01 T01261012  RH  038%=      5-min Rain = 0
KMD1 211659Z 19013G18KT 13/M01 A3006 RMK A01 T01291008  RH  039%=      5-min Rain = 0
KMD1 211700Z 18015G20KT 13/M01 A3006 RMK A01 T01311010  RH  038%=      5-min Rain = 0
KMD1 211701Z 18017G25KT 13/M01 A3006 RMK A01 T01321011  RH  037%=      5-min Rain = 0
KMD1 211702Z 19015G20KT 13/M01 A3006 RMK A01 T01321012  RH  037%=      5-min Rain = 0
KMD1 211703Z 19020KT 13/M02 A3006 RMK A01 T01321015  RH  036%=      5-min Rain = 0
KMD1 211704Z 18019G24KT 13/M02 A3005 RMK A01 T01311016  RH  036%=      5-min Rain = 0
KMD1 211705Z 19014G19KT 13/M01 A3006 RMK A01 T01311014  RH  037%=      5-min Rain = 0
KMD1 211706Z 19015G20KT 13/M01 A3006 RMK A01 T01321012  RH  037%=      5-min Rain = 0
KMD1 211707Z 19016KT 13/M01 A3006 RMK A01 T01331014  RH  036%=      5-min Rain = 0
KMD1 211708Z 20014KT 13/M01 A3006 RMK A01 T01331012  RH  037%=      5-min Rain = 0
KMD1 211709Z 18015G22KT 14/M01 A3006 RMK A01 T01351010  RH  037%=      5-min Rain = 0
KMD1 211710Z 19018KT 14/M01 A3006 RMK A01 T01361014  RH  035%=      5-min Rain = 0
KMD1 211711Z 19019G24KT 14/M02 A3006 RMK A01 T01351016  RH  035%=      5-min Rain = 0
KMD1 211712Z 19016G21KT 13/M01 A3006 RMK A01 T01341014  RH  036%=      5-min Rain = 0
KMD1 211713Z 19015KT 14/M01 A3006 RMK A01 T01361010  RH  036%=      5-min Rain = 0
KMD1 211714Z 20017G23KT 14/M01 A3006 RMK A01 T01381012  RH  036%=      5-min Rain = 0
KMD1 211715Z 20016KT 14/M01 A3006 RMK A01 T01391011  RH  036%=      5-min Rain = 0
KMD1 211716Z 20015KT 14/M01 A3006 RMK A01 T01401011  RH  035%=      5-min Rain = 0
KMD1 211717Z 19013KT 14/M01 A3006 RMK A01 T01411009  RH  036%=      5-min Rain = 0
KMD1 211718Z 20015KT 14/M01 A3006 RMK A01 T01431010  RH  035%=      5-min Rain = 0
KMD1 211719Z 20016G22KT 14/M01 A3006 RMK A01 T01421012  RH  035%=      5-min Rain = 0
KMD1 211720Z 20015G21KT 14/M01 A3005 RMK A01 T01421010  RH  035%=      5-min Rain = 0
KMD1 211721Z 20015KT 14/M01 A3005 RMK A01 T01431012  RH  034%=      5-min Rain = 0
KMD1 211722Z 20016KT 14/M01 A3005 RMK A01 T01421012  RH  034%=      5-min Rain = 0
KMD1 211723Z 20013G19KT 14/M01 A3005 RMK A01 T01421010  RH  035%=      5-min Rain = 0
KMD1 211724Z 19014KT 14/M01 A3005 RMK A01 T01421012  RH  035%=      5-min Rain = 0
KMD1 211725Z 20012KT 14/M01 A3005 RMK A01 T01421010  RH  035%=      5-min Rain = 0
KMD1 211726Z 20015KT 14/M01 A3005 RMK A01 T01431009  RH  035%=      5-min Rain = 0
KMD1 211727Z 18014G19KT 14/M01 A3005 RMK A01 T01431013  RH  034%=      5-min Rain = 0
KMD1 211728Z 18016G21KT 14/M01 A3005 RMK A01 T01431010  RH  035%=      5-min Rain = 0
KMD1 211729Z 18016KT 14/M01 A3005 RMK A01 T01441010  RH  035%=      5-min Rain = 0
KMD1 211730Z 18015KT 15/M01 A3005 RMK A01 T01451007  RH  035%=      5-min Rain = 0
KMD1 211731Z 19016KT 15/M01 A3005 RMK A01 T01461012  RH  034%=      5-min Rain = 0
KMD1 211732Z 18014G20KT 14/M01 A3005 RMK A01 T01441012  RH  034%=      5-min Rain = 0
KMD1 211733Z 18016KT 14/M01 A3005 RMK A01 T01441011  RH  034%=      5-min Rain = 0
KMD1 211734Z 19017KT 14/M01 A3005 RMK A01 T01441010  RH  035%=      5-min Rain = 0
KMD1 211735Z 20018KT 14/M01 A3005 RMK A01 T01441012  RH  034%=      5-min Rain = 0
KMD1 211736Z 18017KT 15/M01 A3005 RMK A01 T01451010  RH  034%=      5-min Rain = 0
KMD1 211737Z 18018KT 14/M01 A3005 RMK A01 T01441012  RH  034%=      5-min Rain = 0
KMD1 211738Z 19017KT 15/M01 A3005 RMK A01 T01451011  RH  034%=      5-min Rain = 0
KMD1 211739Z 20016KT 15/M01 A3005 RMK A01 T01461008  RH  035%=      5-min Rain = 0
KMD1 211740Z 19015KT 15/M01 A3005 RMK A01 T01481010  RH  034%=      5-min Rain = 0
KMD1 211741Z 19016G21KT 15/M01 A3005 RMK A01 T01481010  RH  034%=      5-min Rain = 0
KMD1 211742Z 19015KT 15/M01 A3005 RMK A01 T01481010  RH  034%=      5-min Rain = 0
KMD1 211743Z 18012G17KT 15/M01 A3005 RMK A01 T01481009  RH  034%=      5-min Rain = 0
KMD1 211744Z 18015KT 15/M01 A3004 RMK A01 T01481008  RH  034%=      5-min Rain = 0
KMD1 211745Z 18012KT 15/M01 A3004 RMK A01 T01491007  RH  034%=      5-min Rain = 0
KMD1 211746Z 18011KT 15/M01 A3004 RMK A01 T01491006  RH  035%=      5-min Rain = 0
KMD1 211747Z 19017G24KT 15/M01 A3004 RMK A01 T01511005  RH  034%=      5-min Rain = 0
KMD1 211748Z 19021G26KT 15/M01 A3004 RMK A01 T01521007  RH  034%=      5-min Rain = 0
KMD1 211749Z 19020G25KT 15/M01 A3004 RMK A01 T01511010  RH  033%=      5-min Rain = 0
KMD1 211750Z 17017G26KT 15/M01 A3004 RMK A01 T01481013  RH  033%=      5-min Rain = 0
KMD1 211751Z 20014G19KT 15/M01 A3004 RMK A01 T01471006  RH  035%=      5-min Rain = 0
KMD1 211752Z 20014G19KT 15/M01 A3004 RMK A01 T01501006  RH  034%=      5-min Rain = 0
KMD1 211753Z 19012KT 15/M00 A3004 RMK A01 T01521002  RH  035%=      5-min Rain = 0
KMD1 211754Z 18013KT 16/M00 A3004 RMK A01 T01551003  RH  034%=      5-min Rain = 0
KMD1 211755Z 19012KT 16/00 A3004 RMK A01 T015500-0  RH  035%=      5-min Rain = 0
KMD1 211756Z 19013KT 16/M00 A3004 RMK A01 T01561001  RH  034%=      5-min Rain = 0
KMD1 211757Z 20016KT 16/M00 A3003 RMK A01 T01561003  RH  034%=      5-min Rain = 0
KMD1 211758Z 17016KT 15/M01 A3003 RMK A01 T01541005  RH  034%=      5-min Rain = 0
KMD1 211759Z 17019G24KT 15/M01 A3003 RMK A01 T01541005  RH  034%=      5-min Rain = 0
KMD1 211800Z 19018KT 15/M01 A3003 RMK A01 T01531005  RH  034%=      5-min Rain = 0
KMD1 211801Z 17016G22KT 15/M00 A3003 RMK A01 T01531004  RH  034%=      5-min Rain = 0
KMD1 211802Z 18018KT 15/M00 A3003 RMK A01 T01531004  RH  034%=      5-min Rain = 0
KMD1 211803Z 17018KT 15/M00 A3003 RMK A01 T01531004  RH  034%=      5-min Rain = 0
KMD1 211804Z 19017KT 15/M00 A3003 RMK A01 T01521002  RH  035%=      5-min Rain = 0
KMD1 211805Z 19016G21KT 15/M00 A3003 RMK A01 T01531004  RH  034%=      5-min Rain = 0
KMD1 211806Z 18016KT 15/M01 A3003 RMK A01 T01531005  RH  034%=      5-min Rain = 0
KMD1 211807Z 18014KT 15/M00 A3003 RMK A01 T01531002  RH  035%=      5-min Rain = 0
KMD1 211808Z 19014KT 16/M00 A3003 RMK A01 T01551004  RH  034%=      5-min Rain = 0
KMD1 211809Z 18013KT 16/M00 A3003 RMK A01 T01561001  RH  034%=      5-min Rain = 0
KMD1 211810Z 18015G20KT 16/00 A3003 RMK A01 T01580001  RH  034%=      5-min Rain = 0
KMD1 211811Z 17017KT 16/M00 A3003 RMK A01 T01581002  RH  034%=      5-min Rain = 0
KMD1 211812Z 17017KT 16/00 A3003 RMK A01 T015800-0  RH  034%=      5-min Rain = 0
KMD1 211813Z 17019KT 16/M00 A3002 RMK A01 T01571002  RH  034%=      5-min Rain = 0
KMD1 211814Z 18014G20KT 16/00 A3003 RMK A01 T01570002  RH  035%=      5-min Rain = 0
KMD1 211815Z 18014KT 16/00 A3003 RMK A01 T01600004  RH  035%=      5-min Rain = 0
KMD1 211816Z 17015G20KT 16/00 A3002 RMK A01 T01600000  RH  034%=      5-min Rain = 0
KMD1 211817Z 18014KT 16/00 A3002 RMK A01 T01600001  RH  034%=      5-min Rain = 0
KMD1 211818Z 18014G19KT 16/00 A3002 RMK A01 T01610003  RH  034%=      5-min Rain = 0
KMD1 211819Z 17017KT 16/00 A3002 RMK A01 T01620002  RH  034%=      5-min Rain = 0
KMD1 211820Z 18016KT 16/00 A3002 RMK A01 T01610002  RH  034%=      5-min Rain = 0
KMD1 211821Z 20016G23KT 16/00 A3002 RMK A01 T016100-0  RH  033%=      5-min Rain = 0
KMD1 211822Z 20016KT 16/00 A3002 RMK A01 T01610002  RH  034%=      5-min Rain = 0
KMD1 211823Z 18014KT 16/00 A3002 RMK A01 T01620000  RH  033%=      5-min Rain = 0
KMD1 211824Z 20016G21KT 16/00 A3002 RMK A01 T01610001  RH  034%=      5-min Rain = 0
KMD1 211825Z 20016G22KT 16/00 A3002 RMK A01 T01610001  RH  034%=      5-min Rain = 0
KMD1 211826Z 19017KT 16/M00 A3002 RMK A01 T01611001  RH  033%=      5-min Rain = 0
KMD1 211827Z 19020KT 16/M00 A3002 RMK A01 T01611001  RH  033%=      5-min Rain = 0
KMD1 211828Z 19018KT 16/M00 A3002 RMK A01 T01601004  RH  033%=      5-min Rain = 0
KMD1 211829Z 19016G21KT 16/M00 A3002 RMK A01 T01591002  RH  033%=      5-min Rain = 0
KMD1 211830Z 19017G23KT 16/00 A3002 RMK A01 T016000-0  RH  034%=      5-min Rain = 0
KMD1 211831Z 19019G24KT 16/M00 A3001 RMK A01 T01601002  RH  033%=      5-min Rain = 0
KMD1 211832Z 20018G24KT 16/00 A3002 RMK A01 T016000-0  RH  034%=      5-min Rain = 0
KMD1 211833Z 20017G24KT 16/M00 A3001 RMK A01 T01601002  RH  033%=      5-min Rain = 0
KMD1 211834Z 19017G27KT 16/M00 A3001 RMK A01 T01601002  RH  033%=      5-min Rain = 0
KMD1 211835Z 18021G26KT 16/M00 A3001 RMK A01 T01611002  RH  033%=      5-min Rain = 0
KMD1 211836Z 19016G21KT 16/M00 A3001 RMK A01 T01611002  RH  033%=      5-min Rain = 0
KMD1 211837Z 19017KT 16/00 A3001 RMK A01 T016100-0  RH  033%=      5-min Rain = 0
KMD1 211838Z 19016G21KT 16/00 A3001 RMK A01 T01620000  RH  033%=      5-min Rain = 0
KMD1 211839Z 17016KT 16/00 A3001 RMK A01 T01630001  RH  033%=      5-min Rain = 0
KMD1 211840Z 18017G22KT 16/M00 A3001 RMK A01 T01641002  RH  032%=      5-min Rain = 0
KMD1 211841Z 19017G22KT 16/00 A3001 RMK A01 T01630001  RH  033%=      5-min Rain = 0
KMD1 211842Z 19017G23KT 16/M00 A3001 RMK A01 T01631002  RH  033%=      5-min Rain = 0
KMD1 211843Z 18019KT 16/M00 A3001 RMK A01 T01631002  RH  033%=      5-min Rain = 0
KMD1 211844Z 18016KT 16/M00 A3001 RMK A01 T01631001  RH  033%=      5-min Rain = 0
KMD1 211845Z 19018KT 16/00 A30 RMK A01 T016300-0  RH  033%=      5-min Rain = 0
KMD1 211846Z 18018KT 16/00 A30 RMK A01 T01640000  RH  033%=      5-min Rain = 0
KMD1 211847Z 19017KT 16/M00 A30 RMK A01 T01641002  RH  032%=      5-min Rain = 0
KMD1 211848Z 19015KT 16/M00 A30 RMK A01 T01641001  RH  033%=      5-min Rain = 0
KMD1 211849Z 19018KT 17/00 A30 RMK A01 T01650001  RH  033%=      5-min Rain = 0
KMD1 211850Z 19016KT 17/00 A30 RMK A01 T01660001  RH  033%=      5-min Rain = 0
KMD1 211851Z 19015G20KT 17/00 A30 RMK A01 T01660001  RH  032%=      5-min Rain = 0
KMD1 211852Z 19016KT 17/00 A30 RMK A01 T01660000  RH  032%=      5-min Rain = 0
KMD1 211853Z 18016KT 17/00 A30 RMK A01 T01670003  RH  033%=      5-min Rain = 0
KMD1 211854Z 18018KT 17/00 A30 RMK A01 T01690001  RH  032%=      5-min Rain = 0
KMD1 211855Z 19016KT 17/00 A30 RMK A01 T016800-0  RH  032%=      5-min Rain = 0
KMD1 211856Z 18017KT 17/00 A30 RMK A01 T01670000  RH  032%=      5-min Rain = 0
KMD1 211857Z 18016KT 17/00 A2999 RMK A01 T01670000  RH  032%=      5-min Rain = 0
KMD1 211858Z 18018KT 17/00 A2999 RMK A01 T01680000  RH  032%=      5-min Rain = 0
KMD1 211859Z 18013KT 17/00 A30 RMK A01 T01680000  RH  032%=      5-min Rain = 0
KMD1 211900Z 18019KT 17/00 A2999 RMK A01 T01690003  RH  033%=      5-min Rain = 0
KMD1 211901Z 18018KT 17/M00 A2999 RMK A01 T01691002  RH  031%=      5-min Rain = 0
KMD1 211902Z 19015KT 17/00 A2999 RMK A01 T016800-0  RH  032%=      5-min Rain = 0
KMD1 211903Z 19016KT 17/00 A2999 RMK A01 T01680001  RH  032%=      5-min Rain = 0
KMD1 211904Z 19016KT 17/M00 A2999 RMK A01 T01691001  RH  032%=      5-min Rain = 0
KMD1 211905Z 19016KT 17/M00 A2999 RMK A01 T01681003  RH  031%=      5-min Rain = 0
KMD1 211906Z 19016KT 17/M00 A2999 RMK A01 T01671001  RH  032%=      5-min Rain = 0
KMD1 211907Z 21016KT 17/M00 A2999 RMK A01 T01691002  RH  031%=      5-min Rain = 0
KMD1 211908Z 21016KT 17/M00 A2999 RMK A01 T01701002  RH  031%=      5-min Rain = 0
KMD1 211909Z 21016G23KT 17/M00 A2999 RMK A01 T01701003  RH  031%=      5-min Rain = 0
KMD1 211910Z 20019KT 17/M00 A2999 RMK A01 T01691003  RH  031%=      5-min Rain = 0
KMD1 211911Z 20016KT 17/M00 A2999 RMK A01 T01691004  RH  031%=      5-min Rain = 0
KMD1 211912Z 20018G26KT 17/M00 A2998 RMK A01 T01701001  RH  031%=      5-min Rain = 0
KMD1 211913Z 19019KT 17/M00 A2998 RMK A01 T01721001  RH  031%=      5-min Rain = 0
KMD1 211914Z 20016G21KT 17/M00 A2999 RMK A01 T01711001  RH  031%=      5-min Rain = 0
KMD1 211915Z 20017G22KT 17/00 A2998 RMK A01 T01740002  RH  031%=      5-min Rain = 0
KMD1 211916Z 20014G19KT 17/00 A2998 RMK A01 T01740001  RH  031%=      5-min Rain = 0
KMD1 211917Z 20016KT 18/M00 A2998 RMK A01 T01751001  RH  030%=      5-min Rain = 0
KMD1 211918Z 20021G27KT 18/00 A2998 RMK A01 T017500-0  RH  031%=      5-min Rain = 0
KMD1 211919Z 20021KT 17/M00 A2998 RMK A01 T01731003  RH  030%=      5-min Rain = 0
KMD1 211920Z 20019KT 17/M00 A2998 RMK A01 T01721004  RH  030%=      5-min Rain = 0
KMD1 211921Z 20020G25KT 17/M00 A2998 RMK A01 T01711003  RH  031%=      5-min Rain = 0
KMD1 211922Z 20021G26KT 17/M01 A2998 RMK A01 T01711005  RH  030%=      5-min Rain = 0
KMD1 211923Z 19017KT 17/M00 A2998 RMK A01 T01701003  RH  031%=      5-min Rain = 0
KMD1 211924Z 19020G25KT 17/00 A2998 RMK A01 T017100-0  RH  031%=      5-min Rain = 0
KMD1 211925Z 20020KT 17/M01 A2998 RMK A01 T01721005  RH  030%=      5-min Rain = 0
KMD1 211926Z 20021KT 17/M00 A2998 RMK A01 T01711004  RH  031%=      5-min Rain = 0
KMD1 211927Z 20018KT 17/M00 A2998 RMK A01 T01711004  RH  030%=      5-min Rain = 0
KMD1 211928Z 20018G23KT 17/M00 A2998 RMK A01 T01711003  RH  031%=      5-min Rain = 0
KMD1 211929Z 20015KT 17/00 A2998 RMK A01 T01720002  RH  032%=      5-min Rain = 0
KMD1 211930Z 20020G25KT 17/M00 A2997 RMK A01 T01741002  RH  030%=      5-min Rain = 0
KMD1 211931Z 20018KT 17/M00 A2998 RMK A01 T01731002  RH  030%=      5-min Rain = 0
KMD1 211932Z 19017KT 17/M00 A2997 RMK A01 T01721003  RH  031%=      5-min Rain = 0
KMD1 211933Z 19019G26KT 17/M00 A2997 RMK A01 T01711002  RH  031%=      5-min Rain = 0
KMD1 211934Z 19017G22KT 17/M00 A2997 RMK A01 T01711003  RH  031%=      5-min Rain = 0
KMD1 211935Z 19016KT 17/00 A2997 RMK A01 T01710000  RH  031%=      5-min Rain = 0
KMD1 211936Z 19016KT 17/00 A2997 RMK A01 T01740002  RH  031%=      5-min Rain = 0
KMD1 211937Z 19015KT 18/00 A2997 RMK A01 T01750003  RH  031%=      5-min Rain = 0
KMD1 211938Z 20018KT 18/M00 A2997 RMK A01 T01761001  RH  030%=      5-min Rain = 0
KMD1 211939Z 18014KT 17/00 A2997 RMK A01 T01740001  RH  031%=      5-min Rain = 0
KMD1 211940Z 18017KT 17/00 A2997 RMK A01 T01730001  RH  031%=      5-min Rain = 0
KMD1 211941Z 18017G22KT 17/00 A2997 RMK A01 T01740001  RH  031%=      5-min Rain = 0
KMD1 211942Z 18014KT 17/00 A2997 RMK A01 T01740003  RH  031%=      5-min Rain = 0
KMD1 211943Z 20013KT 18/01 A2997 RMK A01 T01760008  RH  032%=      5-min Rain = 0
KMD1 211944Z 20012KT 18/01 A2997 RMK A01 T01780005  RH  031%=      5-min Rain = 0
KMD1 211945Z 19011KT 18/01 A2997 RMK A01 T01780009  RH  032%=      5-min Rain = 0
KMD1 211946Z 19010KT 18/01 A2997 RMK A01 T01810012  RH  032%=      5-min Rain = 0
KMD1 211947Z 18014KT 18/01 A2997 RMK A01 T01820007  RH  031%=      5-min Rain = 0
KMD1 211948Z 19012KT 18/01 A2997 RMK A01 T01810009  RH  031%=      5-min Rain = 0
KMD1 211949Z 20017KT 18/01 A2997 RMK A01 T01810009  RH  031%=      5-min Rain = 0
KMD1 211950Z 19014KT 18/00 A2996 RMK A01 T01790004  RH  031%=      5-min Rain = 0
KMD1 211951Z 19010KT 18/01 A2996 RMK A01 T01780010  RH  032%=      5-min Rain = 0
KMD1 211952Z 18012KT 18/01 A2996 RMK A01 T01800011  RH  032%=      5-min Rain = 0
KMD1 211953Z 19015KT 18/01 A2996 RMK A01 T01830014  RH  032%=      5-min Rain = 0
KMD1 211954Z 18018KT 18/01 A2996 RMK A01 T01830006  RH  030%=      5-min Rain = 0
KMD1 211955Z 18015KT 18/00 A2996 RMK A01 T01790003  RH  031%=      5-min Rain = 0
KMD1 211956Z 18013KT 18/01 A2996 RMK A01 T01770006  RH  031%=      5-min Rain = 0
KMD1 211957Z 17014G19KT 18/01 A2996 RMK A01 T01780005  RH  031%=      5-min Rain = 0
KMD1 211958Z 18014KT 18/01 A2996 RMK A01 T01770005  RH  031%=      5-min Rain = 0
KMD1 211959Z 18014KT 18/01 A2996 RMK A01 T01770006  RH  032%=      5-min Rain = 0
KMD1 212000Z 19010KT 18/01 A2996 RMK A01 T01790010  RH  032%=      5-min Rain = 0
KMD1 212001Z 19015KT 18/01 A2996 RMK A01 T01820011  RH  032%=      5-min Rain = 0
KMD1 212002Z 20013KT 18/01 A2996 RMK A01 T01830011  RH  031%=      5-min Rain = 0
KMD1 212003Z 20018KT 18/01 A2996 RMK A01 T01830008  RH  031%=      5-min Rain = 0
KMD1 212004Z 18018KT 18/01 A2995 RMK A01 T01800006  RH  031%=      5-min Rain = 0
KMD1 212005Z 18017KT 18/01 A2995 RMK A01 T01790006  RH  031%=      5-min Rain = 0
KMD1 212006Z 19018KT 18/01 A2995 RMK A01 T01780006  RH  031%=      5-min Rain = 0
KMD1 212007Z 20017KT 18/00 A2995 RMK A01 T01770004  RH  031%=      5-min Rain = 0
KMD1 212008Z 20018KT 18/01 A2995 RMK A01 T01770006  RH  032%=      5-min Rain = 0
KMD1 212009Z 20017KT 18/01 A2995 RMK A01 T01770007  RH  032%=      5-min Rain = 0
KMD1 212010Z 20014KT 18/01 A2995 RMK A01 T01780008  RH  032%=      5-min Rain = 0
KMD1 212011Z 20014KT 18/01 A2995 RMK A01 T01790010  RH  032%=      5-min Rain = 0
KMD1 212012Z 18016KT 18/01 A2995 RMK A01 T01810011  RH  032%=      5-min Rain = 0
KMD1 212013Z 19017G22KT 18/01 A2995 RMK A01 T01820009  RH  031%=      5-min Rain = 0
KMD1 212014Z 19015KT 18/01 A2995 RMK A01 T01810008  RH  031%=      5-min Rain = 0
KMD1 212015Z 18014KT 18/01 A2995 RMK A01 T01800009  RH  032%=      5-min Rain = 0
KMD1 212016Z 19014KT 18/01 A2995 RMK A01 T01800006  RH  031%=      5-min Rain = 0
KMD1 212017Z 17013KT 18/01 A2994 RMK A01 T01800008  RH  031%=      5-min Rain = 0
KMD1 212018Z 20011G17KT 18/01 A2995 RMK A01 T01810012  RH  032%=      5-min Rain = 0
KMD1 212019Z 19017G22KT 18/01 A2994 RMK A01 T01830011  RH  031%=      5-min Rain = 0
KMD1 212020Z 18017G22KT 18/01 A2994 RMK A01 T01820007  RH  031%=      5-min Rain = 0
KMD1 212021Z 18019KT 18/01 A2994 RMK A01 T01810009  RH  031%=      5-min Rain = 0
KMD1 212022Z 19016KT 18/01 A2994 RMK A01 T01810008  RH  031%=      5-min Rain = 0
KMD1 212023Z 19016KT 18/01 A2994 RMK A01 T01810008  RH  031%=      5-min Rain = 0
KMD1 212024Z 19015KT 18/01 A2994 RMK A01 T01810009  RH  031%=      5-min Rain = 0
KMD1 212025Z 19012KT 18/01 A2994 RMK A01 T01810011  RH  032%=      5-min Rain = 0
KMD1 212026Z 19011G16KT 18/01 A2994 RMK A01 T01830014  RH  032%=      5-min Rain = 0
KMD1 212027Z 19016G21KT 19/01 A2994 RMK A01 T01850013  RH  031%=      5-min Rain = 0
KMD1 212028Z 18016KT 19/01 A2994 RMK A01 T01850011  RH  031%=      5-min Rain = 0
KMD1 212029Z 19016G22KT 19/01 A2994 RMK A01 T01850011  RH  031%=      5-min Rain = 0
KMD1 212030Z 18016G21KT 18/01 A2994 RMK A01 T01830008  RH  031%=      5-min Rain = 0
KMD1 212031Z 18015G20KT 18/01 A2994 RMK A01 T01830011  RH  031%=      5-min Rain = 0
KMD1 212032Z 18019KT 18/01 A2994 RMK A01 T01820011  RH  032%=      5-min Rain = 0
KMD1 212033Z 18014G20KT 18/01 A2994 RMK A01 T01810008  RH  031%=      5-min Rain = 0
KMD1 212034Z 17015G21KT 18/01 A2994 RMK A01 T01810014  RH  033%=      5-min Rain = 0
KMD1 212035Z 18016KT 18/01 A2994 RMK A01 T01820010  RH  031%=      5-min Rain = 0
KMD1 212036Z 18013KT 18/01 A2994 RMK A01 T01810010  RH  032%=      5-min Rain = 0
KMD1 212037Z 18013KT 18/01 A2994 RMK A01 T01810013  RH  032%=      5-min Rain = 0
KMD1 212038Z 17018G24KT 18/01 A2993 RMK A01 T01830014  RH  032%=      5-min Rain = 0
KMD1 212039Z 19015KT 18/01 A2994 RMK A01 T01840014  RH  032%=      5-min Rain = 0
KMD1 212040Z 18015G20KT 18/01 A2994 RMK A01 T01840014  RH  032%=      5-min Rain = 0
KMD1 212041Z 18013G18KT 18/02 A2993 RMK A01 T01840015  RH  032%=      5-min Rain = 0
KMD1 212042Z 17015G20KT 18/02 A2993 RMK A01 T01840015  RH  032%=      5-min Rain = 0
KMD1 212043Z 17017KT 19/02 A2993 RMK A01 T01850015  RH  032%=      5-min Rain = 0
KMD1 212044Z 16016KT 18/02 A2993 RMK A01 T01840017  RH  033%=      5-min Rain = 0
KMD1 212045Z 18015KT 19/02 A2993 RMK A01 T01850017  RH  032%=      5-min Rain = 0
KMD1 212046Z 18018KT 19/02 A2993 RMK A01 T01860015  RH  032%=      5-min Rain = 0
KMD1 212047Z 18016KT 19/02 A2993 RMK A01 T01860016  RH  032%=      5-min Rain = 0
KMD1 212048Z 19013KT 19/01 A2993 RMK A01 T01860014  RH  032%=      5-min Rain = 0
KMD1 212049Z 18014KT 19/02 A2993 RMK A01 T01850015  RH  032%=      5-min Rain = 0
KMD1 212050Z 18014KT 19/01 A2993 RMK A01 T01850014  RH  032%=      5-min Rain = 0
KMD1 212051Z 19014G21KT 19/01 A2993 RMK A01 T01850014  RH  032%=      5-min Rain = 0
KMD1 212052Z 19015KT 19/02 A2993 RMK A01 T01860016  RH  032%=      5-min Rain = 0
KMD1 212053Z 19018KT 19/01 A2992 RMK A01 T01860014  RH  032%=      5-min Rain = 0
KMD1 212054Z 19016KT 19/01 A2992 RMK A01 T01860014  RH  032%=      5-min Rain = 0
KMD1 212055Z 19015G20KT 19/01 A2992 RMK A01 T01850014  RH  032%=      5-min Rain = 0
KMD1 212056Z 19018KT 19/01 A2992 RMK A01 T01850014  RH  032%=      5-min Rain = 0
KMD1 212057Z 19015KT 18/01 A2992 RMK A01 T01840014  RH  032%=      5-min Rain = 0
KMD1 212058Z 19015KT 18/02 A2993 RMK A01 T01840017  RH  033%=      5-min Rain = 0
KMD1 212059Z 19015KT 19/02 A2992 RMK A01 T01850016  RH  032%=      5-min Rain = 0
KMD1 212100Z 18011KT 19/02 A2993 RMK A01 T01850017  RH  032%=      5-min Rain = 0
KMD1 212101Z 18011KT 19/02 A2992 RMK A01 T01860020  RH  033%=      5-min Rain = 0
KMD1 212102Z 18014KT 19/02 A2992 RMK A01 T01880021  RH  033%=      5-min Rain = 0
KMD1 212103Z 17016KT 19/02 A2992 RMK A01 T01880019  RH  032%=      5-min Rain = 0
KMD1 212104Z 18017KT 19/02 A2992 RMK A01 T01870017  RH  032%=      5-min Rain = 0
KMD1 212105Z 17014G21KT 19/02 A2992 RMK A01 T01860017  RH  032%=      5-min Rain = 0
KMD1 212106Z 18016KT 19/02 A2992 RMK A01 T01850018  RH  033%=      5-min Rain = 0
KMD1 212107Z 18014KT 19/02 A2992 RMK A01 T01860021  RH  033%=      5-min Rain = 0
KMD1 212108Z 17013KT 19/02 A2992 RMK A01 T01870023  RH  033%=      5-min Rain = 0
KMD1 212109Z 18017KT 19/02 A2992 RMK A01 T01890022  RH  033%=      5-min Rain = 0
KMD1 212110Z 18015KT 19/02 A2992 RMK A01 T01880019  RH  032%=      5-min Rain = 0
KMD1 212111Z 19015KT 19/02 A2992 RMK A01 T01870020  RH  033%=      5-min Rain = 0
KMD1 212112Z 20013KT 19/02 A2992 RMK A01 T01870023  RH  033%=      5-min Rain = 0
KMD1 212113Z 20013KT 19/02 A2992 RMK A01 T01880022  RH  033%=      5-min Rain = 0
KMD1 212114Z 20014G19KT 19/02 A2991 RMK A01 T01890022  RH  033%=      5-min Rain = 0
KMD1 212115Z 20014KT 19/02 A2991 RMK A01 T01890023  RH  033%=      5-min Rain = 0
KMD1 212116Z 18017KT 19/02 A2991 RMK A01 T01890022  RH  033%=      5-min Rain = 0
KMD1 212117Z 19017KT 19/02 A2991 RMK A01 T01890020  RH  032%=      5-min Rain = 0
KMD1 212118Z 17016KT 19/02 A2991 RMK A01 T01870020  RH  033%=      5-min Rain = 0
KMD1 212119Z 18018KT 19/02 A2991 RMK A01 T01880021  RH  033%=      5-min Rain = 0
KMD1 212120Z 17015KT 19/02 A2991 RMK A01 T01880022  RH  033%=      5-min Rain = 0
KMD1 212121Z 17017G22KT 19/02 A2991 RMK A01 T01880022  RH  033%=      5-min Rain = 0
KMD1 212122Z 17018G23KT 19/02 A2991 RMK A01 T01880023  RH  033%=      5-min Rain = 0
KMD1 212123Z 17019KT 19/02 A2991 RMK A01 T01870022  RH  033%=      5-min Rain = 0
KMD1 212124Z 18014G19KT 19/02 A2991 RMK A01 T01870023  RH  033%=      5-min Rain = 0
KMD1 212125Z 18014G19KT 19/02 A2991 RMK A01 T01880024  RH  034%=      5-min Rain = 0
KMD1 212126Z 19015G20KT 19/02 A2991 RMK A01 T01890022  RH  033%=      5-min Rain = 0
KMD1 212127Z 19015KT 19/03 A2991 RMK A01 T01880025  RH  034%=      5-min Rain = 0
KMD1 212128Z 18015KT 19/02 A2991 RMK A01 T01880022  RH  033%=      5-min Rain = 0
KMD1 212129Z 18014KT 19/02 A2991 RMK A01 T01880023  RH  033%=      5-min Rain = 0
KMD1 212130Z 18013G18KT 19/03 A2991 RMK A01 T01880025  RH  034%=      5-min Rain = 0
KMD1 212131Z 19014KT 19/02 A299 RMK A01 T01890024  RH  033%=      5-min Rain = 0
KMD1 212132Z 19015KT 19/03 A299 RMK A01 T01890026  RH  034%=      5-min Rain = 0
KMD1 212133Z 18016G21KT 19/03 A299 RMK A01 T01900026  RH  034%=      5-min Rain = 0
KMD1 212134Z 19013G18KT 19/03 A299 RMK A01 T01890027  RH  034%=      5-min Rain = 0
KMD1 212135Z 18015KT 19/03 A299 RMK A01 T01900027  RH  034%=      5-min Rain = 0
KMD1 212136Z 19013KT 19/03 A299 RMK A01 T01900028  RH  034%=      5-min Rain = 0
KMD1 212137Z 19012KT 19/03 A299 RMK A01 T01890029  RH  034%=      5-min Rain = 0
KMD1 212138Z 19015KT 19/03 A299 RMK A01 T01900028  RH  034%=      5-min Rain = 0
KMD1 212139Z 19015KT 19/03 A299 RMK A01 T01900026  RH  034%=      5-min Rain = 0
KMD1 212140Z 18013KT 19/03 A299 RMK A01 T01900027  RH  034%=      5-min Rain = 0
KMD1 212141Z 17018KT 19/03 A299 RMK A01 T01900026  RH  034%=      5-min Rain = 0
KMD1 212142Z 17013KT 19/03 A299 RMK A01 T01900027  RH  034%=      5-min Rain = 0
KMD1 212143Z 18012KT 19/03 A299 RMK A01 T01900029  RH  034%=      5-min Rain = 0
KMD1 212144Z 18016KT 19/03 A299 RMK A01 T01910026  RH  033%=      5-min Rain = 0
KMD1 212145Z 18018KT 19/03 A299 RMK A01 T01910026  RH  033%=      5-min Rain = 0
KMD1 212146Z 17017KT 19/03 A299 RMK A01 T01900027  RH  034%=      5-min Rain = 0
KMD1 212147Z 18013KT 19/03 A299 RMK A01 T01890027  RH  034%=      5-min Rain = 0
KMD1 212148Z 18015KT 19/03 A299 RMK A01 T01890028  RH  034%=      5-min Rain = 0
KMD1 212149Z 18013KT 19/03 A299 RMK A01 T01900028  RH  034%=      5-min Rain = 0
KMD1 212150Z 18015KT 19/03 A299 RMK A01 T01900028  RH  034%=      5-min Rain = 0
KMD1 212151Z 19015KT 19/03 A299 RMK A01 T01890027  RH  034%=      5-min Rain = 0
KMD1 212152Z 18012G17KT 19/03 A299 RMK A01 T01890029  RH  034%=      5-min Rain = 0
KMD1 212153Z 18018KT 19/03 A299 RMK A01 T01890028  RH  034%=      5-min Rain = 0
KMD1 212154Z 18017KT 19/03 A299 RMK A01 T01880029  RH  035%=      5-min Rain = 0
KMD1 212155Z 18016G21KT 19/03 A299 RMK A01 T01880030  RH  035%=      5-min Rain = 0
KMD1 212156Z 19014KT 19/03 A299 RMK A01 T01880028  RH  035%=      5-min Rain = 0
KMD1 212157Z 19011KT 19/03 A299 RMK A01 T01880030  RH  035%=      5-min Rain = 0
KMD1 212158Z 21014KT 19/03 A299 RMK A01 T01890032  RH  035%=      5-min Rain = 0
KMD1 212159Z 18015KT 19/03 A299 RMK A01 T01890034  RH  036%=      5-min Rain = 0
KMD1 212200Z 19013KT 19/03 A299 RMK A01 T01910033  RH  035%=      5-min Rain = 0
KMD1 212201Z 20015KT 19/03 A299 RMK A01 T01910032  RH  035%=      5-min Rain = 0
KMD1 212202Z 19012KT 19/03 A299 RMK A01 T01900032  RH  035%=      5-min Rain = 0
KMD1 212203Z 19014G19KT 19/03 A299 RMK A01 T01890034  RH  036%=      5-min Rain = 0
KMD1 212204Z 19012KT 19/03 A299 RMK A01 T01890033  RH  035%=      5-min Rain = 0
KMD1 212205Z 19013KT 19/04 A299 RMK A01 T01900036  RH  036%=      5-min Rain = 0
KMD1 212206Z 20012KT 19/04 A299 RMK A01 T01910036  RH  036%=      5-min Rain = 0
KMD1 212207Z 19012KT 19/03 A299 RMK A01 T01910034  RH  035%=      5-min Rain = 0
KMD1 212208Z 19014KT 19/04 A299 RMK A01 T01910036  RH  036%=      5-min Rain = 0
KMD1 212209Z 19013G18KT 19/04 A299 RMK A01 T01910035  RH  035%=      5-min Rain = 0
KMD1 212210Z 19016KT 19/03 A299 RMK A01 T01910034  RH  035%=      5-min Rain = 0
KMD1 212211Z 19016KT 19/03 A299 RMK A01 T01900032  RH  035%=      5-min Rain = 0
KMD1 212212Z 19019KT 19/03 A2989 RMK A01 T01890032  RH  035%=      5-min Rain = 0
KMD1 212213Z 19017KT 19/03 A2989 RMK A01 T01880032  RH  036%=      5-min Rain = 0
KMD1 212214Z 19015KT 19/03 A2989 RMK A01 T01870032  RH  036%=      5-min Rain = 0
KMD1 212215Z 19015KT 19/03 A2989 RMK A01 T01870033  RH  036%=      5-min Rain = 0
KMD1 212216Z 20014KT 19/03 A2989 RMK A01 T01870034  RH  036%=      5-min Rain = 0
KMD1 212217Z 18011KT 19/04 A2989 RMK A01 T01870037  RH  037%=      5-min Rain = 0
KMD1 212218Z 18008KT 19/04 A2989 RMK A01 T01890042  RH  038%=      5-min Rain = 0
KMD1 212219Z 18011KT 19/04 A2989 RMK A01 T01900041  RH  037%=      5-min Rain = 0
KMD1 212220Z 17012KT 19/04 A2989 RMK A01 T01910042  RH  037%=      5-min Rain = 0
KMD1 212221Z 17012KT 19/04 A2989 RMK A01 T01910042  RH  037%=      5-min Rain = 0
KMD1 212222Z 17014KT 19/04 A2989 RMK A01 T01900043  RH  038%=      5-min Rain = 0
KMD1 212223Z 17015KT 19/04 A2989 RMK A01 T01890041  RH  038%=      5-min Rain = 0
KMD1 212224Z 18013KT 19/04 A2989 RMK A01 T01880041  RH  038%=      5-min Rain = 0
KMD1 212225Z 17013KT 19/04 A2989 RMK A01 T01870040  RH  038%=      5-min Rain = 0
KMD1 212226Z 18010KT 19/04 A299 RMK A01 T01870041  RH  038%=      5-min Rain = 0
KMD1 212227Z 18012KT 19/04 A299 RMK A01 T01870041  RH  038%=      5-min Rain = 0
KMD1 212228Z 18011G16KT 19/04 A299 RMK A01 T01870043  RH  039%=      5-min Rain = 0
KMD1 212229Z 18014KT 19/04 A299 RMK A01 T01880043  RH  039%=      5-min Rain = 0
KMD1 212230Z 17012KT 19/05 A299 RMK A01 T01870045  RH  039%=      5-min Rain = 0
KMD1 212231Z 16016KT 19/05 A2989 RMK A01 T01870045  RH  039%=      5-min Rain = 0
KMD1 212232Z 16016KT 19/04 A2989 RMK A01 T01860044  RH  039%=      5-min Rain = 0
KMD1 212233Z 16014KT 19/05 A2989 RMK A01 T01850046  RH  040%=      5-min Rain = 0
KMD1 212234Z 17014KT 18/05 A2989 RMK A01 T01840045  RH  040%=      5-min Rain = 0
KMD1 212235Z 16012KT 18/04 A2989 RMK A01 T01840044  RH  040%=      5-min Rain = 0
KMD1 212236Z 17011KT 18/05 A299 RMK A01 T01840045  RH  040%=      5-min Rain = 0
KMD1 212237Z 16011KT 18/05 A299 RMK A01 T01840046  RH  040%=      5-min Rain = 0
KMD1 212238Z 17014G19KT 19/05 A2989 RMK A01 T01850046  RH  040%=      5-min Rain = 0
KMD1 212239Z 16016KT 19/05 A2989 RMK A01 T01850046  RH  040%=      5-min Rain = 0
KMD1 212240Z 16014KT 18/05 A299 RMK A01 T01840047  RH  040%=      5-min Rain = 0
KMD1 212241Z 17010KT 18/05 A299 RMK A01 T01840046  RH  040%=      5-min Rain = 0
KMD1 212242Z 18014KT 19/05 A299 RMK A01 T01850048  RH  040%=      5-min Rain = 0
KMD1 212243Z 17015KT 19/05 A299 RMK A01 T01850046  RH  040%=      5-min Rain = 0
KMD1 212244Z 16012KT 18/05 A299 RMK A01 T01840046  RH  040%=      5-min Rain = 0
KMD1 212245Z 16013KT 18/05 A299 RMK A01 T01830046  RH  040%=      5-min Rain = 0
KMD1 212246Z 17013KT 18/05 A299 RMK A01 T01830048  RH  041%=      5-min Rain = 0
KMD1 212247Z 17010KT 18/05 A299 RMK A01 T01830047  RH  041%=      5-min Rain = 0
KMD1 212248Z 17010KT 18/05 A299 RMK A01 T01830049  RH  041%=      5-min Rain = 0
KMD1 212249Z 16013KT 18/05 A2989 RMK A01 T01830049  RH  041%=      5-min Rain = 0
KMD1 212250Z 17014KT 18/05 A2989 RMK A01 T01830048  RH  041%=      5-min Rain = 0
KMD1 212251Z 17014G19KT 18/05 A2989 RMK A01 T01820050  RH  042%=      5-min Rain = 0
KMD1 212252Z 17014KT 18/05 A2989 RMK A01 T01820050  RH  042%=      5-min Rain = 0
KMD1 212253Z 18013KT 18/05 A2989 RMK A01 T01810050  RH  042%=      5-min Rain = 0
KMD1 212254Z 17012KT 18/05 A2989 RMK A01 T01810050  RH  042%=      5-min Rain = 0
KMD1 212255Z 17011KT 18/05 A2989 RMK A01 T01810051  RH  042%=      5-min Rain = 0
KMD1 212256Z 17012KT 18/05 A2989 RMK A01 T01810051  RH  042%=      5-min Rain = 0
KMD1 212257Z 17012G18KT 18/05 A2989 RMK A01 T01810051  RH  042%=      5-min Rain = 0
KMD1 212258Z 18010KT 18/05 A299 RMK A01 T01810052  RH  043%=      5-min Rain = 0
KMD1 212259Z 17011KT 18/05 A2989 RMK A01 T01810052  RH  043%=      5-min Rain = 0
KMD1 212300Z 17012KT 18/05 A2989 RMK A01 T01810051  RH  042%=      5-min Rain = 0
KMD1 212301Z 16014KT 18/05 A2989 RMK A01 T01810052  RH  043%=      5-min Rain = 0
KMD1 212302Z 17014KT 18/05 A2989 RMK A01 T01800052  RH  043%=      5-min Rain = 0
KMD1 212303Z 17014KT 18/05 A2989 RMK A01 T01790052  RH  043%=      5-min Rain = 0
KMD1 212304Z 18014KT 18/05 A2989 RMK A01 T01790052  RH  043%=      5-min Rain = 0
KMD1 212305Z 17016G21KT 18/05 A2989 RMK A01 T01790052  RH  043%=      5-min Rain = 0
KMD1 212306Z 18018KT 18/05 A2989 RMK A01 T01780050  RH  043%=      5-min Rain = 0
KMD1 212307Z 18015G20KT 18/05 A2989 RMK A01 T01780050  RH  043%=      5-min Rain = 0
KMD1 212308Z 18013KT 18/05 A299 RMK A01 T01780051  RH  043%=      5-min Rain = 0
KMD1 212309Z 18013KT 18/05 A2989 RMK A01 T01770052  RH  044%=      5-min Rain = 0
KMD1 212310Z 18013KT 18/05 A299 RMK A01 T01770053  RH  044%=      5-min Rain = 0
KMD1 212311Z 16013KT 18/05 A2989 RMK A01 T01770053  RH  044%=      5-min Rain = 0
KMD1 212312Z 16014KT 18/05 A2989 RMK A01 T01770052  RH  044%=      5-min Rain = 0
KMD1 212313Z 16015KT 18/05 A2989 RMK A01 T01760053  RH  044%=      5-min Rain = 0
KMD1 212314Z 17014KT 18/05 A2989 RMK A01 T01760052  RH  044%=      5-min Rain = 0
KMD1 212315Z 17015KT 18/05 A2989 RMK A01 T01760051  RH  044%=      5-min Rain = 0
KMD1 212316Z 17017KT 18/05 A2989 RMK A01 T01750051  RH  044%=      5-min Rain = 0
KMD1 212317Z 19015KT 18/05 A2989 RMK A01 T01750051  RH  044%=      5-min Rain = 0
KMD1 212318Z 18014KT 18/05 A299 RMK A01 T01750051  RH  044%=      5-min Rain = 0
KMD1 212319Z 17011KT 18/05 A299 RMK A01 T01750051  RH  044%=      5-min Rain = 0
KMD1 212320Z 18013KT 18/05 A299 RMK A01 T01750052  RH  044%=      5-min Rain = 0
KMD1 212321Z 17014KT 18/05 A299 RMK A01 T01750051  RH  044%=      5-min Rain = 0
KMD1 212322Z 18012KT 17/05 A299 RMK A01 T01740052  RH  044%=      5-min Rain = 0
KMD1 212323Z 18009KT 17/05 A299 RMK A01 T01740052  RH  045%=      5-min Rain = 0
KMD1 212324Z 17011KT 17/05 A2989 RMK A01 T01730053  RH  045%=      5-min Rain = 0
KMD1 212325Z 16013KT 17/05 A2989 RMK A01 T01730052  RH  045%=      5-min Rain = 0
KMD1 212326Z 17013KT 17/05 A2989 RMK A01 T01730053  RH  045%=      5-min Rain = 0
KMD1 212327Z 17012KT 17/05 A2989 RMK A01 T01730053  RH  045%=      5-min Rain = 0
KMD1 212328Z 17011G16KT 17/05 A2989 RMK A01 T01720052  RH  045%=      5-min Rain = 0
KMD1 212329Z 17011KT 17/05 A2989 RMK A01 T01720052  RH  045%=      5-min Rain = 0
KMD1 212330Z 17011G16KT 17/05 A2989 RMK A01 T01720053  RH  045%=      5-min Rain = 0
KMD1 212331Z 16014KT 17/05 A2989 RMK A01 T01720054  RH  046%=      5-min Rain = 0
KMD1 212332Z 17015KT 17/05 A2989 RMK A01 T01720054  RH  046%=      5-min Rain = 0
KMD1 212333Z 17014KT 17/05 A2989 RMK A01 T01710053  RH  046%=      5-min Rain = 0
KMD1 212334Z 17014KT 17/05 A2989 RMK A01 T01710054  RH  046%=      5-min Rain = 0
KMD1 212335Z 17014KT 17/05 A2989 RMK A01 T01710054  RH  046%=      5-min Rain = 0
KMD1 212336Z 17012KT 17/05 A2989 RMK A01 T01710054  RH  046%=      5-min Rain = 0
KMD1 212337Z 18011KT 17/06 A2989 RMK A01 T01700055  RH  046%=      5-min Rain = 0
KMD1 212338Z 17012KT 17/06 A2989 RMK A01 T01690055  RH  047%=      5-min Rain = 0
KMD1 212339Z 18014KT 17/06 A2988 RMK A01 T01690056  RH  047%=      5-min Rain = 0
KMD1 212340Z 17013KT 17/06 A2988 RMK A01 T01690056  RH  047%=      5-min Rain = 0
KMD1 212341Z 17013G18KT 17/06 A2988 RMK A01 T01680057  RH  048%=      5-min Rain = 0
KMD1 212342Z 17012KT 17/06 A2988 RMK A01 T01680056  RH  048%=      5-min Rain = 0
KMD1 212343Z 17013KT 17/06 A2988 RMK A01 T01680057  RH  048%=      5-min Rain = 0
KMD1 212344Z 17011KT 17/06 A2989 RMK A01 T01680057  RH  048%=      5-min Rain = 0
KMD1 212345Z 16012KT 17/06 A2988 RMK A01 T01680057  RH  048%=      5-min Rain = 0
KMD1 212346Z 16012KT 17/06 A2988 RMK A01 T01670058  RH  049%=      5-min Rain = 0
KMD1 212347Z 16010KT 17/06 A2988 RMK A01 T01650059  RH  049%=      5-min Rain = 0
KMD1 212348Z 15010KT 16/06 A2988 RMK A01 T01640059  RH  050%=      5-min Rain = 0
KMD1 212349Z 16011KT 16/06 A2988 RMK A01 T01640060  RH  050%=      5-min Rain = 0
KMD1 212350Z 15011KT 16/06 A2988 RMK A01 T01620060  RH  051%=      5-min Rain = 0
KMD1 212351Z 15013KT 16/06 A2988 RMK A01 T01610060  RH  051%=      5-min Rain = 0
KMD1 212352Z 16011KT 16/06 A2988 RMK A01 T01610060  RH  051%=      5-min Rain = 0
KMD1 212353Z 16011KT 16/06 A2988 RMK A01 T01610060  RH  051%=      5-min Rain = 0
KMD1 212354Z 16010KT 16/06 A2988 RMK A01 T01610061  RH  051%=      5-min Rain = 0
KMD1 212355Z 16009KT 16/06 A2988 RMK A01 T01600061  RH  052%=      5-min Rain = 0
KMD1 212356Z 16008KT 16/06 A2988 RMK A01 T01590060  RH  052%=      5-min Rain = 0
KMD1 212357Z 15010KT 16/06 A2988 RMK A01 T01590060  RH  052%=      5-min Rain = 0
KMD1 212358Z 16009KT 16/06 A2988 RMK A01 T01580060  RH  052%=      5-min Rain = 0
KMD1 212359Z 16009KT 16/06 A2988 RMK A01 T01570060  RH  052%=      5-min Rain = 0
KMD1 220000Z 16008KT 16/06 A2988 RMK A01 T01570061  RH  053%=      5-min Rain = 0
KMD1 220001Z 16011KT 16/06 A2988 RMK A01 T01570060  RH  053%=      5-min Rain = 0
KMD1 220002Z 16008KT 16/06 A2988 RMK A01 T01560060  RH  053%=      5-min Rain = 0
KMD1 220003Z 16009KT 16/06 A2988 RMK A01 T01570060  RH  052%=      5-min Rain = 0
KMD1 220004Z 16008KT 16/06 A2988 RMK A01 T01560060  RH  053%=      5-min Rain = 0
KMD1 220005Z 16009KT 16/06 A2988 RMK A01 T01550060  RH  053%=      5-min Rain = 0
KMD1 220006Z 16009KT 16/06 A2988 RMK A01 T01550060  RH  053%=      5-min Rain = 0
KMD1 220007Z 15010KT 16/06 A2988 RMK A01 T01550060  RH  053%=      5-min Rain = 0
KMD1 220008Z 17008KT 15/06 A2988 RMK A01 T01540060  RH  053%=      5-min Rain = 0
KMD1 220009Z 17009KT 15/06 A2988 RMK A01 T01530060  RH  054%=      5-min Rain = 0
KMD1 220010Z 16007KT 15/06 A2988 RMK A01 T01530059  RH  054%=      5-min Rain = 0
KMD1 220011Z 16008KT 15/06 A2988 RMK A01 T01520060  RH  054%=      5-min Rain = 0
KMD1 220012Z 16009KT 15/06 A2988 RMK A01 T01510060  RH  054%=      5-min Rain = 0
KMD1 220013Z 16008KT 15/06 A2988 RMK A01 T01510060  RH  054%=      5-min Rain = 0
KMD1 220014Z 16007KT 15/06 A2988 RMK A01 T01510060  RH  055%=      5-min Rain = 0
KMD1 220015Z 15007KT 15/06 A2988 RMK A01 T01490060  RH  055%=      5-min Rain = 0
KMD1 220016Z 15007KT 15/06 A2988 RMK A01 T01480060  RH  055%=      5-min Rain = 0
KMD1 220017Z 16007KT 15/06 A2988 RMK A01 T01480060  RH  055%=      5-min Rain = 0
KMD1 220018Z 15007KT 15/06 A2988 RMK A01 T01480060  RH  055%=      5-min Rain = 0
KMD1 220019Z 16007KT 15/06 A2988 RMK A01 T01480060  RH  055%=      5-min Rain = 0
KMD1 220020Z 15008KT 15/06 A2988 RMK A01 T01480061  RH  056%=      5-min Rain = 0
KMD1 220021Z 15008KT 15/06 A2988 RMK A01 T01480061  RH  056%=      5-min Rain = 0
KMD1 220022Z 15008KT 15/06 A2988 RMK A01 T01480061  RH  056%=      5-min Rain = 0
KMD1 220023Z 14008KT 15/06 A2988 RMK A01 T01480061  RH  056%=      5-min Rain = 0
KMD1 220024Z 15008KT 15/06 A2988 RMK A01 T01470061  RH  056%=      5-min Rain = 0
KMD1 220025Z 15007KT 15/06 A2988 RMK A01 T01470061  RH  056%=      5-min Rain = 0
KMD1 220026Z 16008KT 15/06 A2988 RMK A01 T01470061  RH  056%=      5-min Rain = 0
KMD1 220027Z 15008KT 15/06 A2988 RMK A01 T01470061  RH  056%=      5-min Rain = 0
KMD1 220028Z 15007KT 15/06 A2988 RMK A01 T01470061  RH  057%=      5-min Rain = 0
KMD1 220029Z 14008KT 15/06 A2988 RMK A01 T01470061  RH  056%=      5-min Rain = 0
KMD1 220030Z 16009KT 15/06 A2988 RMK A01 T01470061  RH  057%=      5-min Rain = 0
KMD1 220031Z 15007KT 15/06 A2988 RMK A01 T01470061  RH  057%=      5-min Rain = 0
KMD1 220032Z 14009KT 15/06 A2988 RMK A01 T01470062  RH  057%=      5-min Rain = 0
KMD1 220033Z 14008KT 15/06 A2988 RMK A01 T01460062  RH  057%=      5-min Rain = 0
KMD1 220034Z 15008KT 15/06 A2988 RMK A01 T01460063  RH  057%=      5-min Rain = 0
KMD1 220035Z 14007KT 14/06 A2988 RMK A01 T01440062  RH  058%=      5-min Rain = 0
KMD1 220036Z 14008KT 14/06 A2988 RMK A01 T01430062  RH  058%=      5-min Rain = 0
KMD1 220037Z 14008KT 14/06 A2988 RMK A01 T01430062  RH  058%=      5-min Rain = 0
KMD1 220038Z 16012KT 14/06 A2988 RMK A01 T01440062  RH  058%=      5-min Rain = 0
KMD1 220039Z 16011KT 15/06 A2988 RMK A01 T01450063  RH  058%=      5-min Rain = 0
KMD1 220040Z 16011KT 15/06 A2988 RMK A01 T01450063  RH  058%=      5-min Rain = 0
KMD1 220041Z 16010KT 15/06 A2988 RMK A01 T01450063  RH  058%=      5-min Rain = 0
KMD1 220042Z 15009KT 15/06 A2988 RMK A01 T01450064  RH  058%=      5-min Rain = 0
KMD1 220043Z 17009KT 15/06 A2988 RMK A01 T01450064  RH  058%=      5-min Rain = 0
KMD1 220044Z 16007KT 15/06 A2988 RMK A01 T01450063  RH  058%=      5-min Rain = 0
KMD1 220045Z 16007KT 14/06 A2988 RMK A01 T01440064  RH  059%=      5-min Rain = 0
KMD1 220046Z 17007KT 14/06 A2988 RMK A01 T01420064  RH  059%=      5-min Rain = 0
KMD1 220047Z 17007KT 14/06 A2988 RMK A01 T01420064  RH  059%=      5-min Rain = 0
KMD1 220048Z 16009KT 14/06 A2988 RMK A01 T01410064  RH  060%=      5-min Rain = 0
KMD1 220049Z 15008KT 14/06 A2988 RMK A01 T01410064  RH  060%=      5-min Rain = 0
KMD1 220050Z 15006KT 14/06 A2988 RMK A01 T01420064  RH  059%=      5-min Rain = 0
KMD1 220051Z 15008KT 14/06 A2988 RMK A01 T01420064  RH  060%=      5-min Rain = 0
KMD1 220052Z 16006KT 14/07 A2988 RMK A01 T01410065  RH  060%=      5-min Rain = 0
KMD1 220053Z 15007KT 14/07 A2988 RMK A01 T01410065  RH  060%=      5-min Rain = 0
KMD1 220054Z 16006KT 14/07 A2988 RMK A01 T01400065  RH  061%=      5-min Rain = 0
KMD1 220055Z 15005KT 14/07 A2988 RMK A01 T01390065  RH  061%=      5-min Rain = 0
KMD1 220056Z 16007KT 14/06 A2988 RMK A01 T01380064  RH  061%=      5-min Rain = 0
KMD1 220057Z 16009KT 14/07 A2988 RMK A01 T01380065  RH  061%=      5-min Rain = 0
KMD1 220058Z 16008KT 14/07 A2988 RMK A01 T01390066  RH  061%=      5-min Rain = 0
KMD1 220059Z 15007KT 14/07 A2988 RMK A01 T01400065  RH  061%=      5-min Rain = 0
KMD1 220100Z 15006KT 14/07 A2989 RMK A01 T01400065  RH  061%=      5-min Rain = 0
KMD1 220101Z 17008KT 14/07 A2988 RMK A01 T01390065  RH  061%=      5-min Rain = 0
KMD1 220102Z 15005KT 14/07 A2988 RMK A01 T01390066  RH  061%=      5-min Rain = 0
KMD1 220103Z 16006KT 14/07 A2988 RMK A01 T01390065  RH  061%=      5-min Rain = 0
KMD1 220104Z 16010KT 14/07 A2988 RMK A01 T01380066  RH  062%=      5-min Rain = 0
KMD1 220105Z 15010KT 14/07 A2988 RMK A01 T01380066  RH  062%=      5-min Rain = 0
KMD1 220106Z 15008KT 14/07 A2988 RMK A01 T01390067  RH  062%=      5-min Rain = 0
KMD1 220107Z 15008KT 14/07 A2988 RMK A01 T01400067  RH  062%=      5-min Rain = 0
KMD1 220108Z 15010KT 14/07 A2988 RMK A01 T01390067  RH  062%=      5-min Rain = 0
KMD1 220109Z 15011KT 14/07 A2988 RMK A01 T01390068  RH  062%=      5-min Rain = 0
KMD1 220110Z 15008KT 14/07 A2988 RMK A01 T01410068  RH  061%=      5-min Rain = 0
KMD1 220111Z 15009KT 14/07 A2988 RMK A01 T01410068  RH  062%=      5-min Rain = 0
KMD1 220112Z 15008KT 14/07 A2988 RMK A01 T01400068  RH  062%=      5-min Rain = 0
KMD1 220113Z 15007KT 14/07 A2988 RMK A01 T01390068  RH  062%=      5-min Rain = 0
KMD1 220114Z 14008KT 14/07 A2988 RMK A01 T01380068  RH  062%=      5-min Rain = 0
KMD1 220115Z 15007KT 14/07 A2988 RMK A01 T01370068  RH  063%=      5-min Rain = 0
KMD1 220116Z 15006KT 14/07 A2988 RMK A01 T01380068  RH  063%=      5-min Rain = 0
KMD1 220117Z 14006KT 14/07 A2988 RMK A01 T01370068  RH  063%=      5-min Rain = 0
KMD1 220118Z 15005KT 14/07 A2988 RMK A01 T01370068  RH  063%=      5-min Rain = 0
KMD1 220119Z 15005KT 14/07 A2989 RMK A01 T01360067  RH  063%=      5-min Rain = 0
KMD1 220120Z 16005KT 13/07 A2989 RMK A01 T01340066  RH  064%=      5-min Rain = 0
KMD1 220121Z 15004KT 13/07 A2988 RMK A01 T01330067  RH  064%=      5-min Rain = 0
KMD1 220122Z 15004KT 13/07 A2988 RMK A01 T01330066  RH  064%=      5-min Rain = 0
KMD1 220123Z 15005KT 13/07 A2988 RMK A01 T01330066  RH  064%=      5-min Rain = 0
KMD1 220124Z 15005KT 13/07 A2988 RMK A01 T01320066  RH  064%=      5-min Rain = 0
KMD1 220125Z 14006KT 13/07 A2988 RMK A01 T01300066  RH  065%=      5-min Rain = 0
KMD1 220126Z 15007KT 13/07 A2988 RMK A01 T01300067  RH  065%=      5-min Rain = 0
KMD1 220127Z 14006KT 13/07 A2988 RMK A01 T01330067  RH  065%=      5-min Rain = 0
KMD1 220128Z 14006KT 14/07 A2988 RMK A01 T01350067  RH  064%=      5-min Rain = 0
KMD1 220129Z 15006KT 14/07 A2988 RMK A01 T01360067  RH  063%=      5-min Rain = 0
KMD1 220130Z 14006KT 14/07 A2988 RMK A01 T01350067  RH  064%=      5-min Rain = 0
KMD1 220131Z 14005KT 13/07 A2988 RMK A01 T01340068  RH  064%=      5-min Rain = 0
KMD1 220132Z 14007KT 13/07 A2988 RMK A01 T01330067  RH  064%=      5-min Rain = 0
KMD1 220133Z 15007KT 13/07 A2988 RMK A01 T01330068  RH  065%=      5-min Rain = 0
KMD1 220134Z 14007KT 13/07 A2988 RMK A01 T01320068  RH  065%=      5-min Rain = 0
KMD1 220135Z 16008KT 13/07 A2988 RMK A01 T01310068  RH  066%=      5-min Rain = 0
KMD1 220136Z 17009KT 13/07 A2988 RMK A01 T01310069  RH  066%=      5-min Rain = 0
KMD1 220137Z 16009KT 13/07 A2988 RMK A01 T01340070  RH  065%=      5-min Rain = 0
KMD1 220138Z 16007KT 14/07 A2988 RMK A01 T01350070  RH  065%=      5-min Rain = 0
KMD1 220139Z 15007KT 14/07 A2989 RMK A01 T01350070  RH  065%=      5-min Rain = 0
KMD1 220140Z 15007KT 13/07 A2989 RMK A01 T01340070  RH  065%=      5-min Rain = 0
KMD1 220141Z 15006KT 13/07 A2989 RMK A01 T01330070  RH  066%=      5-min Rain = 0
KMD1 220142Z 15006KT 13/07 A2989 RMK A01 T01320070  RH  066%=      5-min Rain = 0
KMD1 220143Z 15005KT 13/07 A2989 RMK A01 T01320070  RH  066%=      5-min Rain = 0
KMD1 220144Z 15005KT 13/07 A2989 RMK A01 T01320070  RH  066%=      5-min Rain = 0
KMD1 220145Z 16005KT 13/07 A2989 RMK A01 T01310069  RH  066%=      5-min Rain = 0
KMD1 220146Z 17007KT 13/07 A2989 RMK A01 T01300070  RH  067%=      5-min Rain = 0
KMD1 220147Z 17007KT 13/07 A2989 RMK A01 T01310070  RH  067%=      5-min Rain = 0
KMD1 220148Z 16005KT 13/07 A2989 RMK A01 T01330070  RH  066%=      5-min Rain = 0
KMD1 220149Z 16004KT 13/07 A2989 RMK A01 T01330070  RH  066%=      5-min Rain = 0
KMD1 220150Z 16005KT 13/07 A2989 RMK A01 T01320070  RH  066%=      5-min Rain = 0
KMD1 220151Z 16007KT 13/07 A2989 RMK A01 T01310070  RH  067%=      5-min Rain = 0
KMD1 220152Z 16008KT 13/07 A2989 RMK A01 T01320071  RH  066%=      5-min Rain = 0
KMD1 220153Z 14007KT 13/07 A2988 RMK A01 T01330071  RH  066%=      5-min Rain = 0
KMD1 220154Z 15007KT 13/07 A2988 RMK A01 T01340071  RH  066%=      5-min Rain = 0
KMD1 220155Z 15005KT 13/07 A2988 RMK A01 T01340071  RH  066%=      5-min Rain = 0
KMD1 220156Z 15006KT 13/07 A2989 RMK A01 T01340071  RH  066%=      5-min Rain = 0
KMD1 220157Z 15004KT 13/07 A2989 RMK A01 T01320071  RH  066%=      5-min Rain = 0
KMD1 220158Z 14005KT 13/07 A2989 RMK A01 T01290070  RH  067%=      5-min Rain = 0
KMD1 220159Z 14005KT 13/07 A2989 RMK A01 T01290071  RH  068%=      5-min Rain = 0
KMD1 220200Z 14006KT 13/07 A2988 RMK A01 T01290071  RH  068%=      5-min Rain = 0
KMD1 220201Z 14006KT 13/07 A2988 RMK A01 T01280071  RH  068%=      5-min Rain = 0
KMD1 220202Z 14005KT 13/07 A2988 RMK A01 T01290071  RH  068%=      5-min Rain = 0
KMD1 220203Z 14006KT 13/07 A2988 RMK A01 T01270071  RH  068%=      5-min Rain = 0
KMD1 220204Z 14005KT 13/07 A2988 RMK A01 T01270071  RH  069%=      5-min Rain = 0
KMD1 220205Z 14005KT 13/07 A2988 RMK A01 T01260070  RH  069%=      5-min Rain = 0
KMD1 220206Z 13006KT 13/07 A2988 RMK A01 T01250070  RH  069%=      5-min Rain = 0
KMD1 220207Z 13007KT 12/07 A2988 RMK A01 T01240071  RH  070%=      5-min Rain = 0
KMD1 220208Z 13007KT 12/07 A2988 RMK A01 T01230071  RH  070%=      5-min Rain = 0
KMD1 220209Z 13007KT 12/07 A2988 RMK A01 T01220071  RH  071%=      5-min Rain = 0
KMD1 220210Z 13007KT 12/07 A2988 RMK A01 T01220071  RH  071%=      5-min Rain = 0
KMD1 220211Z 14008KT 12/07 A2988 RMK A01 T01210071  RH  071%=      5-min Rain = 0
KMD1 220212Z 13007KT 12/07 A2988 RMK A01 T01230072  RH  071%=      5-min Rain = 0
KMD1 220213Z 14007KT 12/07 A2988 RMK A01 T01230072  RH  071%=      5-min Rain = 0
KMD1 220214Z 14006KT 12/07 A2988 RMK A01 T01230072  RH  071%=      5-min Rain = 0
KMD1 220215Z 13007KT 12/07 A2988 RMK A01 T01230072  RH  071%=      5-min Rain = 0
KMD1 220216Z 14007KT 12/07 A2988 RMK A01 T01240072  RH  070%=      5-min Rain = 0
KMD1 220217Z 14008KT 12/07 A2988 RMK A01 T01240072  RH  071%=      5-min Rain = 0
KMD1 220218Z 14008KT 13/07 A2988 RMK A01 T01250072  RH  070%=      5-min Rain = 0
KMD1 220219Z 14006KT 13/07 A2988 RMK A01 T01250072  RH  070%=      5-min Rain = 0
KMD1 220220Z 15009KT 13/07 A2988 RMK A01 T01250072  RH  070%=      5-min Rain = 0
KMD1 220221Z 14007KT 13/07 A2988 RMK A01 T01260072  RH  070%=      5-min Rain = 0
KMD1 220222Z 14006KT 13/07 A2988 RMK A01 T01260072  RH  069%=      5-min Rain = 0
KMD1 220223Z 15006KT 13/07 A2988 RMK A01 T01250071  RH  070%=      5-min Rain = 0
KMD1 220224Z 15006KT 12/07 A2988 RMK A01 T01240072  RH  071%=      5-min Rain = 0
KMD1 220225Z 15008KT 12/07 A2988 RMK A01 T01240072  RH  071%=      5-min Rain = 0
KMD1 220226Z 15007KT 13/07 A2988 RMK A01 T01250072  RH  070%=      5-min Rain = 0
KMD1 220227Z 15007KT 13/07 A2988 RMK A01 T01250072  RH  070%=      5-min Rain = 0
KMD1 220228Z 15007KT 13/07 A2988 RMK A01 T01250073  RH  070%=      5-min Rain = 0
KMD1 220229Z 15005KT 13/07 A2988 RMK A01 T01260072  RH  070%=      5-min Rain = 0
KMD1 220230Z 15005KT 13/07 A2988 RMK A01 T01260072  RH  070%=      5-min Rain = 0
KMD1 220231Z 15008KT 13/07 A2989 RMK A01 T01250072  RH  070%=      5-min Rain = 0
KMD1 220232Z 15006KT 13/07 A2989 RMK A01 T01250073  RH  071%=      5-min Rain = 0
KMD1 220233Z 14006KT 13/07 A2989 RMK A01 T01260073  RH  070%=      5-min Rain = 0
KMD1 220234Z 17006KT 13/07 A2989 RMK A01 T01270073  RH  070%=      5-min Rain = 0
KMD1 220235Z 17006KT 13/07 A2989 RMK A01 T01270073  RH  070%=      5-min Rain = 0
KMD1 220236Z 15008KT 13/07 A2989 RMK A01 T01270073  RH  070%=      5-min Rain = 0
KMD1 220237Z 14006KT 13/07 A2989 RMK A01 T01280074  RH  070%=      5-min Rain = 0
KMD1 220238Z 15007KT 13/07 A2989 RMK A01 T01280073  RH  069%=      5-min Rain = 0
KMD1 220239Z 16006KT 13/07 A2989 RMK A01 T01280074  RH  070%=      5-min Rain = 0
KMD1 220240Z 16006KT 13/07 A2989 RMK A01 T01280073  RH  070%=      5-min Rain = 0
KMD1 220241Z 16006KT 13/07 A2989 RMK A01 T01270074  RH  070%=      5-min Rain = 0
KMD1 220242Z 15006KT 13/07 A2989 RMK A01 T01260074  RH  071%=      5-min Rain = 0
KMD1 220243Z 15007KT 13/07 A2989 RMK A01 T01270074  RH  070%=      5-min Rain = 0
KMD1 220244Z 16006KT 13/07 A2989 RMK A01 T01270074  RH  070%=      5-min Rain = 0
KMD1 220245Z 17007KT 13/07 A2989 RMK A01 T01270074  RH  070%=      5-min Rain = 0
KMD1 220246Z 15006KT 13/07 A2989 RMK A01 T01260074  RH  071%=      5-min Rain = 0
KMD1 220247Z 17005KT 13/07 A2989 RMK A01 T01250074  RH  071%=      5-min Rain = 0
KMD1 220248Z 17005KT 12/07 A2989 RMK A01 T01240073  RH  071%=      5-min Rain = 0
KMD1 220249Z 17005KT 12/07 A2989 RMK A01 T01230074  RH  072%=      5-min Rain = 0
KMD1 220250Z 16004KT 12/07 A2989 RMK A01 T01230074  RH  072%=      5-min Rain = 0
KMD1 220251Z 16005KT 12/07 A2989 RMK A01 T01230074  RH  072%=      5-min Rain = 0
KMD1 220252Z 17004KT 12/07 A2989 RMK A01 T01230074  RH  072%=      5-min Rain = 0
KMD1 220253Z 17006KT 12/07 A2989 RMK A01 T01230074  RH  072%=      5-min Rain = 0
KMD1 220254Z 17006KT 12/07 A2989 RMK A01 T01230074  RH  072%=      5-min Rain = 0
KMD1 220255Z 17007KT 12/07 A2989 RMK A01 T01230074  RH  072%=      5-min Rain = 0
KMD1 220256Z 18007KT 12/08 A2989 RMK A01 T01240075  RH  072%=      5-min Rain = 0
KMD1 220257Z 18005KT 13/07 A2989 RMK A01 T01250074  RH  071%=      5-min Rain = 0
KMD1 220258Z 17005KT 12/08 A2989 RMK A01 T01240075  RH  072%=      5-min Rain = 0
KMD1 220259Z 16007KT 12/08 A2989 RMK A01 T01230075  RH  072%=      5-min Rain = 0
KMD1 220300Z 17006KT 12/08 A2989 RMK A01 T01230075  RH  072%=      5-min Rain = 0
KMD1 220301Z 19005KT 12/08 A299 RMK A01 T01230075  RH  072%=      5-min Rain = 0
KMD1 220302Z 18005KT 12/08 A299 RMK A01 T01230075  RH  072%=      5-min Rain = 0
KMD1 220303Z 18006KT 12/08 A299 RMK A01 T01230075  RH  073%=      5-min Rain = 0
KMD1 220304Z 21004KT 12/08 A299 RMK A01 T01240075  RH  072%=      5-min Rain = 0
KMD1 220305Z 20004KT 13/08 A299 RMK A01 T01250075  RH  071%=      5-min Rain = 0
KMD1 220306Z 19003KT 13/08 A299 RMK A01 T01250075  RH  072%=      5-min Rain = 0
KMD1 220307Z 18005KT 12/08 A299 RMK A01 T01240075  RH  072%=      5-min Rain = 0
KMD1 220308Z 18005KT 12/08 A299 RMK A01 T01240075  RH  072%=      5-min Rain = 0
KMD1 220309Z 19005KT 13/08 A299 RMK A01 T01250075  RH  072%=      5-min Rain = 0
KMD1 220310Z 18005KT 12/07 A299 RMK A01 T01240074  RH  071%=      5-min Rain = 0
KMD1 220311Z 18005KT 12/07 A299 RMK A01 T01240074  RH  072%=      5-min Rain = 0
KMD1 220312Z 18006KT 12/08 A299 RMK A01 T01230075  RH  073%=      5-min Rain = 0
KMD1 220313Z 17006KT 12/07 A299 RMK A01 T01230074  RH  072%=      5-min Rain = 0
KMD1 220314Z 17007KT 12/07 A299 RMK A01 T01220074  RH  073%=      5-min Rain = 0
KMD1 220315Z 16006KT 12/07 A2989 RMK A01 T01210074  RH  073%=      5-min Rain = 0
KMD1 220316Z 17006KT 12/07 A2989 RMK A01 T01200074  RH  074%=      5-min Rain = 0
KMD1 220317Z 16006KT 12/07 A2989 RMK A01 T01190074  RH  074%=      5-min Rain = 0
KMD1 220318Z 16006KT 12/07 A2989 RMK A01 T01170073  RH  074%=      5-min Rain = 0
KMD1 220319Z 17005KT 12/07 A2989 RMK A01 T01160073  RH  075%=      5-min Rain = 0
KMD1 220320Z 17006KT 12/07 A2989 RMK A01 T01150073  RH  075%=      5-min Rain = 0
KMD1 220321Z 16005KT 12/07 A2989 RMK A01 T01150073  RH  076%=      5-min Rain = 0
KMD1 220322Z 16009KT 12/07 A2989 RMK A01 T01150074  RH  076%=      5-min Rain = 0
KMD1 220323Z 16006KT 12/08 A2989 RMK A01 T01160075  RH  076%=      5-min Rain = 0
KMD1 220324Z 16007KT 12/08 A2989 RMK A01 T01170075  RH  076%=      5-min Rain = 0
KMD1 220325Z 17007KT 12/08 A2989 RMK A01 T01180076  RH  075%=      5-min Rain = 0
KMD1 220326Z 17006KT 12/08 A2989 RMK A01 T01200076  RH  074%=      5-min Rain = 0
KMD1 220327Z 17004KT 12/08 A2989 RMK A01 T01220076  RH  074%=      5-min Rain = 0
KMD1 220328Z 16005KT 12/08 A2989 RMK A01 T01220076  RH  073%=      5-min Rain = 0
KMD1 220329Z 16004KT 12/08 A2989 RMK A01 T01210075  RH  074%=      5-min Rain = 0
KMD1 220330Z 17006KT 12/08 A2989 RMK A01 T01200075  RH  074%=      5-min Rain = 0
KMD1 220331Z 16007KT 12/08 A2989 RMK A01 T01180075  RH  075%=      5-min Rain = 0
KMD1 220332Z 16006KT 12/08 A2989 RMK A01 T01180075  RH  075%=      5-min Rain = 0
KMD1 220333Z 17006KT 12/08 A2989 RMK A01 T01180075  RH  075%=      5-min Rain = 0
KMD1 220334Z 16006KT 12/08 A2989 RMK A01 T01180076  RH  075%=      5-min Rain = 0
KMD1 220335Z 17006KT 12/08 A2989 RMK A01 T01180076  RH  075%=      5-min Rain = 0
KMD1 220336Z 16007KT 12/08 A2989 RMK A01 T01190077  RH  075%=      5-min Rain = 0
KMD1 220337Z 16007KT 12/08 A2989 RMK A01 T01180076  RH  076%=      5-min Rain = 0
KMD1 220338Z 15005KT 12/08 A2989 RMK A01 T01180076  RH  075%=      5-min Rain = 0
KMD1 220339Z 15007KT 12/08 A2989 RMK A01 T01180076  RH  075%=      5-min Rain = 0
KMD1 220340Z 15008KT 12/08 A2989 RMK A01 T01170076  RH  076%=      5-min Rain = 0
KMD1 220341Z 15006KT 12/08 A2989 RMK A01 T01170076  RH  076%=      5-min Rain = 0
KMD1 220342Z 16006KT 12/08 A2989 RMK A01 T01170076  RH  076%=      5-min Rain = 0
KMD1 220343Z 16006KT 12/08 A2989 RMK A01 T01170076  RH  076%=      5-min Rain = 0
KMD1 220344Z 16008KT 12/08 A2989 RMK A01 T01170076  RH  076%=      5-min Rain = 0
KMD1 220345Z 16008KT 12/08 A2989 RMK A01 T01180077  RH  076%=      5-min Rain = 0
KMD1 220346Z 17007KT 12/08 A2989 RMK A01 T01180076  RH  076%=      5-min Rain = 0
KMD1 220347Z 16006KT 12/08 A2989 RMK A01 T01190076  RH  075%=      5-min Rain = 0
KMD1 220348Z 16006KT 12/08 A2989 RMK A01 T01180076  RH  075%=      5-min Rain = 0
KMD1 220349Z 16007KT 12/08 A2989 RMK A01 T01170076  RH  076%=      5-min Rain = 0
KMD1 220350Z 16007KT 12/08 A2989 RMK A01 T01160076  RH  076%=      5-min Rain = 0
KMD1 220351Z 16010KT 12/08 A2989 RMK A01 T01160076  RH  077%=      5-min Rain = 0
KMD1 220352Z 16009KT 12/08 A2988 RMK A01 T01160078  RH  077%=      5-min Rain = 0
KMD1 220353Z 15009KT 12/08 A2988 RMK A01 T01170077  RH  077%=      5-min Rain = 0
KMD1 220354Z 15009KT 12/08 A2988 RMK A01 T01170077  RH  077%=      5-min Rain = 0
KMD1 220355Z 16010KT 12/08 A2988 RMK A01 T01170078  RH  077%=      5-min Rain = 0
KMD1 220356Z 15009KT 12/08 A2988 RMK A01 T01190078  RH  076%=      5-min Rain = 0
KMD1 220357Z 15008KT 12/08 A2988 RMK A01 T01190078  RH  076%=      5-min Rain = 0
KMD1 220358Z 15009KT 12/08 A2988 RMK A01 T01180078  RH  076%=      5-min Rain = 0
KMD1 220359Z 15010KT 12/08 A2988 RMK A01 T01180077  RH  076%=      5-min Rain = 0
KMD1 220400Z 16009KT 12/08 A2988 RMK A01 T01180078  RH  077%=      5-min Rain = 0
KMD1 220401Z 15006KT 12/08 A2988 RMK A01 T01180078  RH  077%=      5-min Rain = 0
KMD1 220402Z 15007KT 12/08 A2988 RMK A01 T01170078  RH  077%=      5-min Rain = 0
KMD1 220403Z 14008KT 12/08 A2988 RMK A01 T01170078  RH  077%=      5-min Rain = 0
KMD1 220404Z 15009KT 12/08 A2988 RMK A01 T01160078  RH  077%=      5-min Rain = 0
KMD1 220405Z 15007KT 12/08 A2988 RMK A01 T01170078  RH  077%=      5-min Rain = 0
KMD1 220406Z 14007KT 12/08 A2988 RMK A01 T01180078  RH  076%=      5-min Rain = 0
KMD1 220407Z 15008KT 12/08 A2988 RMK A01 T01170078  RH  077%=      5-min Rain = 0
KMD1 220408Z 16009KT 12/08 A2988 RMK A01 T01170079  RH  077%=      5-min Rain = 0
KMD1 220409Z 15007KT 12/08 A2988 RMK A01 T01170078  RH  077%=      5-min Rain = 0
KMD1 220410Z 14007KT 12/08 A2988 RMK A01 T01170079  RH  077%=      5-min Rain = 0
KMD1 220411Z 14006KT 12/08 A2988 RMK A01 T01170078  RH  077%=      5-min Rain = 0
KMD1 220412Z 15007KT 12/08 A2988 RMK A01 T01160078  RH  077%=      5-min Rain = 0
KMD1 220413Z 15007KT 12/08 A2988 RMK A01 T01150078  RH  078%=      5-min Rain = 0
KMD1 220414Z 15007KT 12/08 A2988 RMK A01 T01150078  RH  078%=      5-min Rain = 0
KMD1 220415Z 15007KT 12/08 A2988 RMK A01 T01160079  RH  078%=      5-min Rain = 0
KMD1 220416Z 16006KT 12/08 A2988 RMK A01 T01160079  RH  078%=      5-min Rain = 0
KMD1 220417Z 16008KT 12/08 A2988 RMK A01 T01160079  RH  078%=      5-min Rain = 0
KMD1 220418Z 15007KT 12/08 A2988 RMK A01 T01160079  RH  078%=      5-min Rain = 0
KMD1 220419Z 14007KT 12/08 A2988 RMK A01 T01160079  RH  078%=      5-min Rain = 0
KMD1 220420Z 15009KT 12/08 A2988 RMK A01 T01160079  RH  078%=      5-min Rain = 0
KMD1 220421Z 15007KT 12/08 A2988 RMK A01 T01170080  RH  078%=      5-min Rain = 0
KMD1 220422Z 14006KT 12/08 A2988 RMK A01 T01180080  RH  078%=      5-min Rain = 0
KMD1 220423Z 14008KT 12/08 A2988 RMK A01 T01180080  RH  078%=      5-min Rain = 0
KMD1 220424Z 15009KT 12/08 A2988 RMK A01 T01180081  RH  078%=      5-min Rain = 0
KMD1 220425Z 15007KT 12/08 A2988 RMK A01 T01180080  RH  078%=      5-min Rain = 0
KMD1 220426Z 15008KT 12/08 A2988 RMK A01 T01170081  RH  078%=      5-min Rain = 0
KMD1 220427Z 15008KT 12/08 A2988 RMK A01 T01170081  RH  079%=      5-min Rain = 0
KMD1 220428Z 15008KT 12/08 A2988 RMK A01 T01170082  RH  079%=      5-min Rain = 0
KMD1 220429Z 16007KT 12/08 A2988 RMK A01 T01170082  RH  079%=      5-min Rain = 0
KMD1 220430Z 16009G15KT 12/08 A2988 RMK A01 T01170082  RH  079%=      5-min Rain = 0
KMD1 220431Z 16010KT 12/08 A2988 RMK A01 T01170084  RH  080%=      5-min Rain = 0
KMD1 220432Z 16009KT 12/08 A2988 RMK A01 T01180083  RH  079%=      5-min Rain = 0
KMD1 220433Z 15009KT 12/08 A2988 RMK A01 T01180084  RH  080%=      5-min Rain = 0
KMD1 220434Z 17008KT 12/08 A2988 RMK A01 T01180084  RH  080%=      5-min Rain = 0
KMD1 220435Z 15009KT 12/08 A2988 RMK A01 T01180084  RH  080%=      5-min Rain = 0
KMD1 220436Z 16010KT 12/08 A2988 RMK A01 T01180084  RH  080%=      5-min Rain = 0
KMD1 220437Z 15010KT 12/09 A2988 RMK A01 T01190085  RH  080%=      5-min Rain = 0
KMD1 220438Z 14010KT 12/09 A2988 RMK A01 T01190085  RH  080%=      5-min Rain = 0
KMD1 220439Z 15012KT 12/09 A2987 RMK A01 T01190086  RH  080%=      5-min Rain = 0
KMD1 220440Z 15010KT 12/09 A2987 RMK A01 T01190086  RH  080%=      5-min Rain = 0
KMD1 220441Z 15007KT 12/09 A2987 RMK A01 T01190085  RH  080%=      5-min Rain = 0
KMD1 220442Z 16008KT 12/09 A2987 RMK A01 T01180086  RH  080%=      5-min Rain = 0
KMD1 220443Z 15009KT 12/09 A2987 RMK A01 T01180086  RH  081%=      5-min Rain = 0
KMD1 220444Z 16010KT 12/09 A2987 RMK A01 T01180086  RH  081%=      5-min Rain = 0
KMD1 220445Z 16009KT 12/09 A2987 RMK A01 T01180087  RH  081%=      5-min Rain = 0
KMD1 220446Z 15008KT 12/09 A2987 RMK A01 T01180087  RH  082%=      5-min Rain = 0
KMD1 220447Z 14009KT 12/09 A2987 RMK A01 T01180087  RH  082%=      5-min Rain = 0
KMD1 220448Z 16009KT 12/09 A2987 RMK A01 T01170087  RH  082%=      5-min Rain = 0
KMD1 220449Z 15011KT 12/09 A2987 RMK A01 T01170088  RH  083%=      5-min Rain = 0
KMD1 220450Z 15009KT 12/09 A2987 RMK A01 T01170089  RH  083%=      5-min Rain = 0
KMD1 220451Z 15008KT 12/09 A2987 RMK A01 T01180089  RH  082%=      5-min Rain = 0
KMD1 220452Z 16010KT 12/09 A2987 RMK A01 T01190089  RH  082%=      5-min Rain = 0
KMD1 220453Z 16010KT 12/09 A2987 RMK A01 T01180090  RH  083%=      5-min Rain = 0
KMD1 220454Z 15009KT 12/09 A2987 RMK A01 T01190090  RH  083%=      5-min Rain = 0
KMD1 220455Z 16008KT 12/09 A2987 RMK A01 T01190090  RH  083%=      5-min Rain = 0
KMD1 220456Z 16008KT 12/09 A2987 RMK A01 T01200091  RH  082%=      5-min Rain = 0
KMD1 220457Z 16009KT 12/09 A2987 RMK A01 T01200090  RH  082%=      5-min Rain = 0
KMD1 220458Z 15008KT 12/09 A2987 RMK A01 T01200091  RH  083%=      5-min Rain = 0
KMD1 220459Z 15010KT 12/09 A2987 RMK A01 T01190091  RH  083%=      5-min Rain = 0
KMD1 220500Z 16008KT 12/09 A2987 RMK A01 T01190092  RH  083%=      5-min Rain = 0
KMD1 220501Z 15008KT 12/09 A2987 RMK A01 T01190091  RH  083%=      5-min Rain = 0
KMD1 220502Z 16010KT 12/09 A2987 RMK A01 T01180092  RH  084%=      5-min Rain = 0
KMD1 220503Z 15008KT 12/09 A2987 RMK A01 T01180092  RH  084%=      5-min Rain = 0
KMD1 220504Z 16009KT 12/09 A2987 RMK A01 T01190093  RH  084%=      5-min Rain = 0
KMD1 220505Z 15006KT 12/09 A2987 RMK A01 T01190092  RH  084%=      5-min Rain = 0
KMD1 220506Z 16007KT 12/09 A2986 RMK A01 T01190092  RH  084%=      5-min Rain = 0
KMD1 220507Z 15007KT 12/09 A2986 RMK A01 T01190092  RH  084%=      5-min Rain = 0
KMD1 220508Z 17007KT 12/09 A2986 RMK A01 T01190092  RH  084%=      5-min Rain = 0
KMD1 220509Z 15007KT 12/09 A2986 RMK A01 T01180092  RH  084%=      5-min Rain = 0
KMD1 220510Z 15012KT 12/09 A2986 RMK A01 T01170093  RH  085%=      5-min Rain = 0
KMD1 220511Z 16009KT 12/09 A2986 RMK A01 T01190094  RH  085%=      5-min Rain = 0
KMD1 220512Z 16007KT 12/09 A2986 RMK A01 T01190094  RH  084%=      5-min Rain = 0
KMD1 220513Z 15008KT 12/09 A2986 RMK A01 T01190094  RH  085%=      5-min Rain = 0
KMD1 220514Z 16008KT 12/09 A2986 RMK A01 T01190094  RH  085%=      5-min Rain = 0
KMD1 220515Z 15011G16KT 12/10 A2986 RMK A01 T01190095  RH  085%=      5-min Rain = 0
KMD1 220516Z 15013KT 12/10 A2986 RMK A01 T01210096  RH  084%=      5-min Rain = 0
KMD1 220517Z 15010KT 12/10 A2986 RMK A01 T01210095  RH  084%=      5-min Rain = 0
KMD1 220518Z 15011KT 12/10 A2986 RMK A01 T01210095  RH  084%=      5-min Rain = 0
KMD1 220519Z 15011KT 12/10 A2985 RMK A01 T01220096  RH  084%=      5-min Rain = 0
KMD1 220520Z 14011KT 12/10 A2985 RMK A01 T01220096  RH  084%=      5-min Rain = 0
KMD1 220521Z 15014KT 12/10 A2985 RMK A01 T01220096  RH  084%=      5-min Rain = 0
KMD1 220522Z 16011KT 12/10 A2985 RMK A01 T01220096  RH  084%=      5-min Rain = 0
KMD1 220523Z 15009KT 12/10 A2985 RMK A01 T01230096  RH  084%=      5-min Rain = 0
KMD1 220524Z 15008KT 12/10 A2985 RMK A01 T01220096  RH  084%=      5-min Rain = 0
KMD1 220525Z 15006KT 12/10 A2985 RMK A01 T01210096  RH  085%=      5-min Rain = 0
KMD1 220526Z 16008KT 12/10 A2985 RMK A01 T01210096  RH  085%=      5-min Rain = 0
KMD1 220527Z 14006KT 12/10 A2985 RMK A01 T01200096  RH  085%=      5-min Rain = 0
KMD1 220528Z 15009KT 12/10 A2985 RMK A01 T01200096  RH  085%=      5-min Rain = 0
KMD1 220529Z 16009KT 12/10 A2985 RMK A01 T01210097  RH  085%=      5-min Rain = 0
KMD1 220530Z 15008KT 12/10 A2985 RMK A01 T01210097  RH  085%=      5-min Rain = 0
KMD1 220531Z 15011KT 12/10 A2985 RMK A01 T01220097  RH  085%=      5-min Rain = 0
KMD1 220532Z 15009KT 12/10 A2985 RMK A01 T01220097  RH  085%=      5-min Rain = 0
KMD1 220533Z 17011KT 12/10 A2985 RMK A01 T01230098  RH  084%=      5-min Rain = 0
KMD1 220534Z 15011KT 12/10 A2985 RMK A01 T01230098  RH  084%=      5-min Rain = 0
KMD1 220535Z 16013G18KT 12/10 A2985 RMK A01 T01240098  RH  084%=      5-min Rain = 0
KMD1 220536Z 15014KT 13/10 A2985 RMK A01 T01250099  RH  084%=      5-min Rain = 0
KMD1 220537Z 14012KT 13/10 A2985 RMK A01 T01250098  RH  084%=      5-min Rain = 0
KMD1 220538Z 16009KT 13/10 A2985 RMK A01 T01250098  RH  084%=      5-min Rain = 0
KMD1 220539Z 15010KT 13/10 A2985 RMK A01 T01250099  RH  084%=      5-min Rain = 0
KMD1 220540Z 16007KT 13/10 A2985 RMK A01 T01250098  RH  084%=      5-min Rain = 0
KMD1 220541Z 15010KT 12/10 A2985 RMK A01 T01240098  RH  084%=      5-min Rain = 0
KMD1 220542Z 16011KT 12/10 A2985 RMK A01 T01240099  RH  085%=      5-min Rain = 0
KMD1 220543Z 15010KT 12/10 A2985 RMK A01 T01240098  RH  084%=      5-min Rain = 0
KMD1 220544Z 15011G16KT 12/10 A2985 RMK A01 T01240098  RH  084%=      5-min Rain = 0
KMD1 220545Z 15010KT 12/10 A2985 RMK A01 T01240099  RH  084%=      5-min Rain = 0
KMD1 220546Z 15010KT 12/10 A2985 RMK A01 T01240099  RH  084%=      5-min Rain = 0
KMD1 220547Z 16011KT 13/10 A2985 RMK A01 T01250099  RH  084%=      5-min Rain = 0
KMD1 220548Z 15008KT 13/10 A2985 RMK A01 T01250099  RH  084%=      5-min Rain = 0
KMD1 220549Z 14010KT 13/10 A2985 RMK A01 T01250099  RH  084%=      5-min Rain = 0
KMD1 220550Z 15011KT 13/10 A2985 RMK A01 T01250099  RH  084%=      5-min Rain = 0
KMD1 220551Z 16011KT 13/10 A2985 RMK A01 T01250099  RH  084%=      5-min Rain = 0
KMD1 220552Z 16009KT 12/10 A2985 RMK A01 T01240099  RH  084%=      5-min Rain = 0
KMD1 220553Z 16008KT 12/10 A2985 RMK A01 T01240098  RH  084%=      5-min Rain = 0
KMD1 220554Z 15012G17KT 12/10 A2985 RMK A01 T01240098  RH  085%=      5-min Rain = 0
KMD1 220555Z 17016KT 12/10 A2985 RMK A01 T01240099  RH  085%=      5-min Rain = 0
KMD1 220556Z 17011KT 12/10 A2985 RMK A01 T01240099  RH  084%=      5-min Rain = 0
KMD1 220557Z 16014KT 13/10 A2984 RMK A01 T01250099  RH  084%=      5-min Rain = 0
KMD1 220558Z 17011KT 13/10 A2984 RMK A01 T01250099  RH  084%=      5-min Rain = 0
KMD1 220559Z 17009KT 12/10 A2984 RMK A01 T01240099  RH  085%=      5-min Rain = 0

Page generated in 0.1522 seconds.